VIR92MC KMCO-EGLL
Flight info
| Callsign | VIR92MC |
|---|---|
| Flight time | 8h 11m |
| Altitude | 37000 |
| Route | MZULO3 ETECK M202 UKOKA/M083F370 M202 ONGOT/M083F390 M202 LOMPI/N0470F390 DCT SUPRY/M083F400 DCT 46N050W 48N040W 49N030W 50N020W DCT SOMAX DCT ATSUR/M084F410 DCT LULOX/N0479F410 DCT SIDDI DCT DAWLY DCT ELRIP DCT OTMET |
| Aircraft | B789/H-SDE1E2E3FGHIJ2J3J4J5M1RWXY/LB1D1 |
Departure
| Time | 2026-04-21 09:00 |
|---|---|
| Airport | Orlando International Airport (KMCO) |
Arrival
| Time | 2026-04-21 17:12 |
|---|---|
| Airport | London Heathrow Airport (EGLL) |
| Time | Latitude | Longitude | Altitude | Speed | Heading |
|---|---|---|---|---|---|
| 2026-04-21 08:35 | 28.42790 | -81.29993 | 104 ft | 0 kts | 306° |
| 2026-04-21 08:51 | 28.42786 | -81.29988 | 104 ft | 2 kts | 305° |
| 2026-04-21 08:51 | 28.42777 | -81.29973 | 103 ft | 2 kts | 306° |
| 2026-04-21 08:51 | 28.42767 | -81.29958 | 103 ft | 2 kts | 307° |
| 2026-04-21 08:51 | 28.42757 | -81.29943 | 103 ft | 2 kts | 307° |
| 2026-04-21 08:52 | 28.42747 | -81.29928 | 103 ft | 2 kts | 297° |
| 2026-04-21 08:52 | 28.42742 | -81.29911 | 102 ft | 2 kts | 256° |
| 2026-04-21 08:52 | 28.42748 | -81.29893 | 101 ft | 2 kts | 223° |
| 2026-04-21 08:52 | 28.42762 | -81.29884 | 102 ft | 2 kts | 188° |
| 2026-04-21 08:53 | 28.42778 | -81.29883 | 101 ft | 2 kts | 180° |
| 2026-04-21 08:53 | 28.42792 | -81.29883 | 102 ft | 1 kts | 178° |
| 2026-04-21 08:53 | 28.42795 | -81.29883 | 102 ft | 0 kts | 178° |
| 2026-04-21 08:54 | 28.42773 | -81.29882 | 103 ft | 7 kts | 178° |
| 2026-04-21 08:54 | 28.42699 | -81.29883 | 103 ft | 13 kts | 180° |
| 2026-04-21 08:54 | 28.42618 | -81.29867 | 105 ft | 11 kts | 139° |
| 2026-04-21 08:54 | 28.42600 | -81.29781 | 103 ft | 13 kts | 89° |
| 2026-04-21 08:55 | 28.42567 | -81.29714 | 104 ft | 9 kts | 155° |
| 2026-04-21 08:55 | 28.42509 | -81.29700 | 103 ft | 8 kts | 177° |
| 2026-04-21 08:55 | 28.42455 | -81.29700 | 103 ft | 8 kts | 180° |
| 2026-04-21 08:55 | 28.42363 | -81.29700 | 103 ft | 16 kts | 180° |
| 2026-04-21 08:56 | 28.42243 | -81.29699 | 101 ft | 18 kts | 179° |
| 2026-04-21 08:56 | 28.42121 | -81.29697 | 102 ft | 17 kts | 180° |
| 2026-04-21 08:56 | 28.42011 | -81.29697 | 104 ft | 15 kts | 180° |
| 2026-04-21 08:56 | 28.41903 | -81.29697 | 103 ft | 16 kts | 180° |
| 2026-04-21 08:57 | 28.41786 | -81.29695 | 103 ft | 17 kts | 179° |
| 2026-04-21 08:57 | 28.41670 | -81.29694 | 104 ft | 16 kts | 180° |
| 2026-04-21 08:57 | 28.41562 | -81.29693 | 105 ft | 16 kts | 179° |
| 2026-04-21 08:57 | 28.41448 | -81.29692 | 103 ft | 18 kts | 179° |
| 2026-04-21 08:58 | 28.41320 | -81.29690 | 101 ft | 19 kts | 179° |
| 2026-04-21 08:58 | 28.41192 | -81.29689 | 105 ft | 18 kts | 179° |
| 2026-04-21 08:58 | 28.41063 | -81.29688 | 101 ft | 19 kts | 179° |
| 2026-04-21 08:58 | 28.40940 | -81.29686 | 98 ft | 16 kts | 179° |
| 2026-04-21 08:59 | 28.40849 | -81.29673 | 98 ft | 11 kts | 144° |
| 2026-04-21 08:59 | 28.40833 | -81.29602 | 99 ft | 9 kts | 87° |
| 2026-04-21 08:59 | 28.40855 | -81.29569 | 98 ft | 2 kts | 18° |
| 2026-04-21 08:59 | 28.40876 | -81.29564 | 99 ft | 4 kts | 10° |
| 2026-04-21 09:00 | 28.40945 | -81.29562 | 97 ft | 23 kts | 0° |
| 2026-04-21 09:00 | 28.41302 | -81.29564 | 103 ft | 90 kts | 359° |
| 2026-04-21 09:00 | 28.42188 | -81.29574 | 103 ft | 163 kts | 359° |
| 2026-04-21 09:00 | 28.43379 | -81.29587 | 771 ft | 172 kts | 356° |
| 2026-04-21 09:01 | 28.44637 | -81.29601 | 1385 ft | 185 kts | 2° |
| 2026-04-21 09:01 | 28.45852 | -81.28979 | 1734 ft | 212 kts | 43° |
| 2026-04-21 09:01 | 28.46794 | -81.27543 | 2038 ft | 242 kts | 57° |
| 2026-04-21 09:01 | 28.47745 | -81.25842 | 2479 ft | 263 kts | 56° |
| 2026-04-21 09:02 | 28.48776 | -81.24168 | 3655 ft | 259 kts | 53° |
| 2026-04-21 09:02 | 28.49867 | -81.22495 | 4488 ft | 269 kts | 55° |
| 2026-04-21 09:02 | 28.50506 | -81.20486 | 5143 ft | 271 kts | 85° |
| 2026-04-21 09:03 | 28.51151 | -81.16276 | 7052 ft | 276 kts | 90° |
| 2026-04-21 09:03 | 28.51004 | -81.14095 | 7943 ft | 279 kts | 92° |
| 2026-04-21 09:03 | 28.50982 | -81.11876 | 8801 ft | 282 kts | 90° |
| 2026-04-21 09:03 | 28.50942 | -81.09631 | 9645 ft | 286 kts | 92° |
| 2026-04-21 09:04 | 28.50850 | -81.07324 | 10139 ft | 304 kts | 93° |
| 2026-04-21 09:04 | 28.50741 | -81.04817 | 10311 ft | 331 kts | 92° |
| 2026-04-21 09:04 | 28.50429 | -81.02162 | 10869 ft | 341 kts | 102° |
| 2026-04-21 09:04 | 28.50042 | -80.99495 | 11675 ft | 344 kts | 97° |
| 2026-04-21 09:05 | 28.49725 | -80.96781 | 12423 ft | 348 kts | 98° |
| 2026-04-21 09:05 | 28.49344 | -80.94046 | 13165 ft | 352 kts | 99° |
| 2026-04-21 09:05 | 28.48921 | -80.91290 | 13889 ft | 356 kts | 99° |
| 2026-04-21 09:05 | 28.48511 | -80.88497 | 14587 ft | 360 kts | 99° |
| 2026-04-21 09:06 | 28.48114 | -80.85674 | 15269 ft | 364 kts | 99° |
| 2026-04-21 09:06 | 28.47753 | -80.82812 | 15918 ft | 368 kts | 93° |
| 2026-04-21 09:06 | 28.47935 | -80.79904 | 16530 ft | 371 kts | 83° |
| 2026-04-21 09:06 | 28.48269 | -80.76983 | 17164 ft | 374 kts | 82° |
| 2026-04-21 09:07 | 28.48623 | -80.74040 | 17765 ft | 378 kts | 82° |
| 2026-04-21 09:07 | 28.48956 | -80.71061 | 18360 ft | 381 kts | 83° |
| 2026-04-21 09:07 | 28.49279 | -80.68051 | 18938 ft | 385 kts | 83° |
| 2026-04-21 09:07 | 28.49613 | -80.65022 | 19498 ft | 388 kts | 83° |
| 2026-04-21 09:08 | 28.49956 | -80.61965 | 20045 ft | 391 kts | 83° |
| 2026-04-21 09:08 | 28.50299 | -80.58885 | 20566 ft | 395 kts | 83° |
| 2026-04-21 09:08 | 28.50640 | -80.55775 | 21071 ft | 398 kts | 83° |
| 2026-04-21 09:08 | 28.50983 | -80.52643 | 21564 ft | 401 kts | 83° |
| 2026-04-21 09:09 | 28.51331 | -80.49487 | 22038 ft | 404 kts | 83° |
| 2026-04-21 09:09 | 28.51679 | -80.46312 | 22500 ft | 407 kts | 83° |
| 2026-04-21 09:09 | 28.52029 | -80.43106 | 22948 ft | 409 kts | 83° |
| 2026-04-21 09:09 | 28.52380 | -80.39886 | 23380 ft | 412 kts | 83° |
| 2026-04-21 09:10 | 28.52733 | -80.36641 | 23798 ft | 415 kts | 83° |
| 2026-04-21 09:10 | 28.53088 | -80.33375 | 24206 ft | 418 kts | 83° |
| 2026-04-21 09:10 | 28.53535 | -80.30151 | 24572 ft | 420 kts | 74° |
| 2026-04-21 09:10 | 28.54684 | -80.27054 | 24959 ft | 422 kts | 59° |
| 2026-04-21 09:11 | 28.56180 | -80.24227 | 25289 ft | 425 kts | 58° |
| 2026-04-21 09:11 | 28.57737 | -80.21364 | 25668 ft | 427 kts | 58° |
| 2026-04-21 09:11 | 28.59301 | -80.18483 | 26030 ft | 429 kts | 58° |
| 2026-04-21 09:11 | 28.60856 | -80.15573 | 26392 ft | 432 kts | 58° |
| 2026-04-21 09:12 | 28.62417 | -80.12644 | 26764 ft | 434 kts | 58° |
| 2026-04-21 09:12 | 28.63995 | -80.09703 | 27127 ft | 436 kts | 58° |
| 2026-04-21 09:12 | 28.65583 | -80.06746 | 27467 ft | 439 kts | 58° |
| 2026-04-21 09:12 | 28.67175 | -80.03770 | 27838 ft | 441 kts | 58° |
| 2026-04-21 09:13 | 28.68774 | -80.00775 | 28190 ft | 444 kts | 58° |
| 2026-04-21 09:13 | 28.70381 | -79.97768 | 28543 ft | 446 kts | 58° |
| 2026-04-21 09:13 | 28.71998 | -79.94740 | 28895 ft | 449 kts | 58° |
| 2026-04-21 09:13 | 28.73624 | -79.91695 | 29244 ft | 451 kts | 58° |
| 2026-04-21 09:14 | 28.75256 | -79.88632 | 29589 ft | 453 kts | 58° |
| 2026-04-21 09:14 | 28.76897 | -79.85551 | 29932 ft | 456 kts | 58° |
| 2026-04-21 09:14 | 28.78547 | -79.82453 | 30279 ft | 458 kts | 58° |
| 2026-04-21 09:14 | 28.80204 | -79.79338 | 30607 ft | 461 kts | 58° |
| 2026-04-21 09:15 | 28.81869 | -79.76205 | 30958 ft | 463 kts | 58° |
| 2026-04-21 09:15 | 28.83541 | -79.73058 | 31289 ft | 466 kts | 58° |
| 2026-04-21 09:15 | 28.85222 | -79.69890 | 31626 ft | 468 kts | 59° |
| 2026-04-21 09:15 | 28.86912 | -79.66705 | 31961 ft | 470 kts | 59° |
| 2026-04-21 09:16 | 28.88609 | -79.63502 | 32291 ft | 473 kts | 59° |
| 2026-04-21 09:16 | 28.90314 | -79.60281 | 32608 ft | 475 kts | 59° |
| 2026-04-21 09:16 | 28.92028 | -79.57043 | 32934 ft | 478 kts | 59° |
| 2026-04-21 09:16 | 28.93749 | -79.53788 | 33242 ft | 480 kts | 59° |
| 2026-04-21 09:17 | 28.95477 | -79.50516 | 33551 ft | 482 kts | 59° |
| 2026-04-21 09:17 | 28.97211 | -79.47232 | 33841 ft | 485 kts | 59° |
| 2026-04-21 09:17 | 28.98954 | -79.43927 | 34125 ft | 487 kts | 59° |
| 2026-04-21 09:17 | 29.00704 | -79.40606 | 34398 ft | 489 kts | 59° |
| 2026-04-21 09:18 | 29.02461 | -79.37270 | 34666 ft | 491 kts | 59° |
| 2026-04-21 09:18 | 29.04223 | -79.33920 | 34969 ft | 492 kts | 59° |
| 2026-04-21 09:18 | 29.05982 | -79.30574 | 35367 ft | 491 kts | 59° |
| 2026-04-21 09:18 | 29.07738 | -79.27233 | 35728 ft | 490 kts | 59° |
| 2026-04-21 09:19 | 29.09489 | -79.23896 | 36079 ft | 489 kts | 59° |
| 2026-04-21 09:19 | 29.11238 | -79.20562 | 36418 ft | 489 kts | 59° |
| 2026-04-21 09:19 | 29.12983 | -79.17231 | 36718 ft | 489 kts | 59° |
| 2026-04-21 09:19 | 29.14731 | -79.13894 | 37003 ft | 489 kts | 59° |
| 2026-04-21 09:20 | 29.18254 | -79.07157 | 36992 ft | 492 kts | 59° |
| 2026-04-21 09:20 | 29.21747 | -79.00468 | 36991 ft | 488 kts | 59° |
| 2026-04-21 09:21 | 29.25222 | -78.93799 | 36993 ft | 488 kts | 59° |
| 2026-04-21 09:21 | 29.28694 | -78.87129 | 36993 ft | 488 kts | 59° |
| 2026-04-21 09:22 | 29.32166 | -78.80445 | 36991 ft | 488 kts | 59° |
| 2026-04-21 09:22 | 29.35614 | -78.73798 | 36994 ft | 488 kts | 59° |
| 2026-04-21 09:23 | 29.39083 | -78.67100 | 36995 ft | 489 kts | 59° |
| 2026-04-21 09:23 | 29.42548 | -78.60399 | 36995 ft | 489 kts | 59° |
| 2026-04-21 09:24 | 29.45449 | -78.54779 | 36996 ft | 489 kts | 59° |
| 2026-04-21 09:24 | 29.49127 | -78.48237 | 37029 ft | 487 kts | 47° |
| 2026-04-21 09:25 | 29.53964 | -78.42774 | 37012 ft | 489 kts | 43° |
| 2026-04-21 09:25 | 29.58880 | -78.37377 | 37012 ft | 489 kts | 44° |
| 2026-04-21 09:26 | 29.63778 | -78.31956 | 37009 ft | 489 kts | 44° |
| 2026-04-21 09:26 | 29.68687 | -78.26537 | 37011 ft | 489 kts | 44° |
| 2026-04-21 09:27 | 29.73589 | -78.21105 | 37010 ft | 489 kts | 44° |
| 2026-04-21 09:27 | 29.78492 | -78.15671 | 37011 ft | 489 kts | 44° |
| 2026-04-21 09:28 | 29.83388 | -78.10233 | 37011 ft | 489 kts | 44° |
| 2026-04-21 09:28 | 29.88253 | -78.04825 | 37011 ft | 489 kts | 44° |
| 2026-04-21 09:29 | 29.93147 | -77.99374 | 37011 ft | 489 kts | 44° |
| 2026-04-21 09:29 | 29.98040 | -77.93918 | 37011 ft | 489 kts | 44° |
| 2026-04-21 09:30 | 30.02962 | -77.88421 | 37011 ft | 489 kts | 44° |
| 2026-04-21 09:30 | 30.07815 | -77.82994 | 37010 ft | 489 kts | 44° |
| 2026-04-21 09:31 | 30.12700 | -77.77523 | 37011 ft | 489 kts | 44° |
| 2026-04-21 09:31 | 30.17572 | -77.72058 | 37413 ft | 485 kts | 44° |
| 2026-04-21 09:32 | 30.19876 | -77.69472 | 37770 ft | 484 kts | 44° |
| 2026-04-21 09:32 | 30.22288 | -77.66762 | 38046 ft | 484 kts | 44° |
| 2026-04-21 09:32 | 30.24702 | -77.64047 | 38334 ft | 484 kts | 44° |
| 2026-04-21 09:32 | 30.27116 | -77.61331 | 38618 ft | 484 kts | 44° |
| 2026-04-21 09:33 | 30.29529 | -77.58614 | 38897 ft | 484 kts | 44° |
| 2026-04-21 09:33 | 30.31941 | -77.55896 | 39169 ft | 484 kts | 44° |
| 2026-04-21 09:33 | 30.34353 | -77.53175 | 39442 ft | 484 kts | 44° |
| 2026-04-21 09:33 | 30.36765 | -77.50454 | 39694 ft | 484 kts | 44° |
| 2026-04-21 09:34 | 30.39175 | -77.47732 | 39960 ft | 484 kts | 44° |
| 2026-04-21 09:34 | 30.41588 | -77.45005 | 40220 ft | 484 kts | 44° |
| 2026-04-21 09:34 | 30.43996 | -77.42281 | 40470 ft | 484 kts | 44° |
| 2026-04-21 09:34 | 30.46406 | -77.39553 | 40714 ft | 484 kts | 44° |
| 2026-04-21 09:35 | 30.48814 | -77.36826 | 40954 ft | 484 kts | 44° |
| 2026-04-21 09:35 | 30.51234 | -77.34083 | 40993 ft | 489 kts | 44° |
| 2026-04-21 09:35 | 30.56091 | -77.28572 | 40992 ft | 486 kts | 44° |
| 2026-04-21 09:36 | 30.60903 | -77.23104 | 40994 ft | 483 kts | 44° |
| 2026-04-21 09:36 | 30.65693 | -77.17652 | 40992 ft | 482 kts | 44° |
| 2026-04-21 09:37 | 30.70485 | -77.12191 | 40994 ft | 483 kts | 44° |
| 2026-04-21 09:37 | 30.75277 | -77.06721 | 40992 ft | 483 kts | 44° |
| 2026-04-21 09:38 | 30.80070 | -77.01243 | 40993 ft | 483 kts | 44° |
| 2026-04-21 09:38 | 30.84830 | -76.95793 | 40995 ft | 483 kts | 44° |
| 2026-04-21 09:39 | 30.89625 | -76.90296 | 40994 ft | 484 kts | 44° |
| 2026-04-21 09:39 | 30.94417 | -76.84794 | 40997 ft | 484 kts | 44° |
| 2026-04-21 09:40 | 30.99209 | -76.79284 | 40998 ft | 484 kts | 44° |
| 2026-04-21 09:40 | 31.03893 | -76.73890 | 40998 ft | 484 kts | 44° |
| 2026-04-21 09:41 | 31.08686 | -76.68362 | 41000 ft | 485 kts | 44° |
| 2026-04-21 09:41 | 31.13478 | -76.62827 | 41001 ft | 485 kts | 44° |
| 2026-04-21 09:42 | 31.18267 | -76.57288 | 41004 ft | 485 kts | 44° |
| 2026-04-21 09:42 | 31.23058 | -76.51737 | 41006 ft | 485 kts | 44° |
| 2026-04-21 09:43 | 31.27847 | -76.46181 | 41005 ft | 485 kts | 45° |
| 2026-04-21 09:43 | 31.32632 | -76.40620 | 41009 ft | 485 kts | 45° |
| 2026-04-21 09:44 | 31.37415 | -76.35054 | 41005 ft | 485 kts | 45° |
| 2026-04-21 09:44 | 31.42196 | -76.29481 | 41004 ft | 485 kts | 45° |
| 2026-04-21 09:45 | 31.46975 | -76.23903 | 41005 ft | 485 kts | 45° |
| 2026-04-21 09:45 | 31.51751 | -76.18318 | 41009 ft | 485 kts | 45° |
| 2026-04-21 09:46 | 31.56523 | -76.12732 | 41007 ft | 485 kts | 45° |
| 2026-04-21 09:46 | 31.61294 | -76.07136 | 41007 ft | 485 kts | 45° |
| 2026-04-21 09:47 | 31.66064 | -76.01535 | 41009 ft | 485 kts | 45° |
| 2026-04-21 09:47 | 31.70829 | -75.95929 | 41008 ft | 485 kts | 45° |
| 2026-04-21 09:48 | 31.75592 | -75.90317 | 41008 ft | 485 kts | 45° |
| 2026-04-21 09:48 | 31.80352 | -75.84700 | 41008 ft | 485 kts | 45° |
| 2026-04-21 09:49 | 31.85108 | -75.79080 | 41008 ft | 485 kts | 45° |
| 2026-04-21 09:49 | 31.89864 | -75.73451 | 41007 ft | 485 kts | 45° |
| 2026-04-21 09:50 | 31.93042 | -75.69684 | 41009 ft | 485 kts | 45° |
| 2026-04-21 09:50 | 31.99362 | -75.62182 | 41011 ft | 485 kts | 45° |
| 2026-04-21 09:51 | 32.04105 | -75.56543 | 41008 ft | 484 kts | 45° |
| 2026-04-21 09:51 | 32.08847 | -75.50895 | 41012 ft | 484 kts | 45° |
| 2026-04-21 09:52 | 32.13584 | -75.45244 | 41007 ft | 484 kts | 45° |
| 2026-04-21 09:52 | 32.18315 | -75.39592 | 41008 ft | 484 kts | 45° |
| 2026-04-21 09:53 | 32.23045 | -75.33931 | 41007 ft | 484 kts | 45° |
| 2026-04-21 09:53 | 32.27771 | -75.28267 | 41010 ft | 484 kts | 45° |
| 2026-04-21 09:54 | 32.32495 | -75.22596 | 41008 ft | 484 kts | 45° |
| 2026-04-21 09:54 | 32.37215 | -75.16922 | 41008 ft | 484 kts | 45° |
| 2026-04-21 09:55 | 32.41929 | -75.11245 | 41007 ft | 484 kts | 45° |
| 2026-04-21 09:55 | 32.46609 | -75.05601 | 41007 ft | 483 kts | 45° |
| 2026-04-21 09:56 | 32.51315 | -74.99915 | 41007 ft | 483 kts | 45° |
| 2026-04-21 09:56 | 32.56020 | -74.94222 | 41006 ft | 483 kts | 45° |
| 2026-04-21 09:57 | 32.60719 | -74.88527 | 41009 ft | 483 kts | 45° |
| 2026-04-21 09:57 | 32.65417 | -74.82825 | 41010 ft | 483 kts | 45° |
| 2026-04-21 09:58 | 32.70108 | -74.77121 | 41007 ft | 483 kts | 45° |
| 2026-04-21 09:58 | 32.74797 | -74.71412 | 41007 ft | 483 kts | 45° |
| 2026-04-21 09:59 | 32.79480 | -74.65700 | 41005 ft | 482 kts | 45° |
| 2026-04-21 09:59 | 32.84161 | -74.59982 | 41006 ft | 482 kts | 45° |
| 2026-04-21 10:00 | 32.88835 | -74.54262 | 41007 ft | 482 kts | 45° |
| 2026-04-21 10:00 | 32.93510 | -74.48532 | 41003 ft | 482 kts | 46° |
| 2026-04-21 10:01 | 32.98177 | -74.42803 | 41004 ft | 482 kts | 46° |
| 2026-04-21 10:01 | 33.02845 | -74.37064 | 41002 ft | 482 kts | 46° |
| 2026-04-21 10:02 | 33.09837 | -74.28449 | 41004 ft | 482 kts | 46° |
| 2026-04-21 10:03 | 33.14494 | -74.22700 | 41002 ft | 482 kts | 46° |
| 2026-04-21 10:03 | 33.19147 | -74.16947 | 41001 ft | 482 kts | 46° |
| 2026-04-21 10:04 | 33.23801 | -74.11182 | 41008 ft | 483 kts | 46° |
| 2026-04-21 10:04 | 33.28470 | -74.05389 | 41009 ft | 485 kts | 46° |
| 2026-04-21 10:05 | 33.33152 | -73.99571 | 41010 ft | 486 kts | 46° |
| 2026-04-21 10:05 | 33.37841 | -73.93736 | 41009 ft | 486 kts | 46° |
| 2026-04-21 10:06 | 33.42486 | -73.87944 | 41008 ft | 485 kts | 46° |
| 2026-04-21 10:06 | 33.47148 | -73.82121 | 41004 ft | 484 kts | 46° |
| 2026-04-21 10:07 | 33.51831 | -73.76263 | 41002 ft | 483 kts | 46° |
| 2026-04-21 10:07 | 33.56470 | -73.70451 | 40998 ft | 482 kts | 46° |
| 2026-04-21 10:08 | 33.61074 | -73.64672 | 40998 ft | 483 kts | 46° |
| 2026-04-21 10:08 | 33.64961 | -73.59786 | 40997 ft | 484 kts | 46° |
| 2026-04-21 10:09 | 33.69610 | -73.53934 | 41005 ft | 484 kts | 46° |
| 2026-04-21 10:09 | 33.74261 | -73.48069 | 41004 ft | 485 kts | 46° |
| 2026-04-21 10:10 | 33.78914 | -73.42191 | 41005 ft | 486 kts | 46° |
| 2026-04-21 10:10 | 33.83570 | -73.36299 | 41009 ft | 486 kts | 46° |
| 2026-04-21 10:11 | 33.88220 | -73.30406 | 41009 ft | 486 kts | 46° |
| 2026-04-21 10:11 | 33.92868 | -73.24505 | 41008 ft | 486 kts | 46° |
| 2026-04-21 10:12 | 33.97514 | -73.18596 | 41012 ft | 486 kts | 46° |
| 2026-04-21 10:12 | 34.02153 | -73.12686 | 41011 ft | 485 kts | 46° |
| 2026-04-21 10:13 | 34.06791 | -73.06768 | 41008 ft | 485 kts | 46° |
| 2026-04-21 10:13 | 34.11426 | -73.00843 | 41008 ft | 485 kts | 46° |
| 2026-04-21 10:14 | 34.16056 | -72.94914 | 41008 ft | 485 kts | 46° |
| 2026-04-21 10:14 | 34.20685 | -72.88977 | 41008 ft | 485 kts | 46° |
| 2026-04-21 10:15 | 34.25312 | -72.83032 | 41013 ft | 485 kts | 46° |
| 2026-04-21 10:15 | 34.29935 | -72.77082 | 41011 ft | 485 kts | 46° |
| 2026-04-21 10:16 | 34.34552 | -72.71130 | 41009 ft | 485 kts | 46° |
| 2026-04-21 10:16 | 34.39168 | -72.65168 | 41012 ft | 485 kts | 46° |
| 2026-04-21 10:17 | 34.43751 | -72.59238 | 41008 ft | 485 kts | 47° |
| 2026-04-21 10:17 | 34.48362 | -72.53262 | 41009 ft | 485 kts | 47° |
| 2026-04-21 10:18 | 34.52967 | -72.47284 | 41009 ft | 485 kts | 47° |
| 2026-04-21 10:18 | 34.57570 | -72.41298 | 41008 ft | 485 kts | 47° |
| 2026-04-21 10:19 | 34.62168 | -72.35308 | 41007 ft | 485 kts | 47° |
| 2026-04-21 10:19 | 34.66764 | -72.29310 | 41013 ft | 485 kts | 47° |
| 2026-04-21 10:20 | 34.71358 | -72.23305 | 41010 ft | 485 kts | 47° |
| 2026-04-21 10:20 | 34.75945 | -72.17297 | 41007 ft | 485 kts | 47° |
| 2026-04-21 10:21 | 34.80527 | -72.11285 | 41006 ft | 484 kts | 47° |
| 2026-04-21 10:21 | 34.85107 | -72.05267 | 41008 ft | 484 kts | 47° |
| 2026-04-21 10:22 | 34.89679 | -71.99248 | 41005 ft | 484 kts | 47° |
| 2026-04-21 10:22 | 34.94247 | -71.93223 | 41004 ft | 484 kts | 47° |
| 2026-04-21 10:23 | 34.98813 | -71.87190 | 41007 ft | 484 kts | 47° |
| 2026-04-21 10:23 | 35.03374 | -71.81154 | 41004 ft | 484 kts | 47° |
| 2026-04-21 10:24 | 35.07928 | -71.75115 | 41001 ft | 483 kts | 47° |
| 2026-04-21 10:24 | 35.12477 | -71.69073 | 41003 ft | 483 kts | 47° |
| 2026-04-21 10:25 | 35.17024 | -71.63024 | 41001 ft | 483 kts | 47° |
| 2026-04-21 10:25 | 35.21565 | -71.56970 | 41001 ft | 483 kts | 47° |
| 2026-04-21 10:26 | 35.26101 | -71.50913 | 40999 ft | 483 kts | 47° |
| 2026-04-21 10:26 | 35.30631 | -71.44854 | 40998 ft | 483 kts | 47° |
| 2026-04-21 10:27 | 35.35159 | -71.38785 | 41000 ft | 482 kts | 47° |
| 2026-04-21 10:27 | 35.39683 | -71.32712 | 40998 ft | 482 kts | 47° |
| 2026-04-21 10:28 | 35.44109 | -71.26759 | 40998 ft | 483 kts | 47° |
| 2026-04-21 10:28 | 35.48640 | -71.20654 | 41002 ft | 485 kts | 47° |
| 2026-04-21 10:29 | 35.53188 | -71.14516 | 41009 ft | 487 kts | 47° |
| 2026-04-21 10:29 | 35.57712 | -71.08399 | 41008 ft | 487 kts | 47° |
| 2026-04-21 10:30 | 35.62255 | -71.02244 | 41007 ft | 485 kts | 47° |
| 2026-04-21 10:30 | 35.66780 | -70.96103 | 41005 ft | 484 kts | 47° |
| 2026-04-21 10:31 | 35.71249 | -70.90027 | 41001 ft | 483 kts | 47° |
| 2026-04-21 10:31 | 35.75754 | -70.83891 | 41002 ft | 484 kts | 47° |
| 2026-04-21 10:32 | 35.80269 | -70.77730 | 41001 ft | 485 kts | 48° |
| 2026-04-21 10:32 | 35.84792 | -70.71546 | 41004 ft | 486 kts | 48° |
| 2026-04-21 10:33 | 35.89316 | -70.65351 | 41007 ft | 486 kts | 48° |
| 2026-04-21 10:33 | 35.93838 | -70.59146 | 41008 ft | 486 kts | 48° |
| 2026-04-21 10:34 | 35.98359 | -70.52931 | 41009 ft | 486 kts | 48° |
| 2026-04-21 10:34 | 36.02873 | -70.46715 | 41009 ft | 486 kts | 48° |
| 2026-04-21 10:35 | 36.07385 | -70.40489 | 41015 ft | 486 kts | 48° |
| 2026-04-21 10:35 | 36.11892 | -70.34258 | 41015 ft | 486 kts | 48° |
| 2026-04-21 10:36 | 36.16399 | -70.28017 | 41010 ft | 486 kts | 48° |
| 2026-04-21 10:36 | 36.20899 | -70.21773 | 41010 ft | 486 kts | 48° |
| 2026-04-21 10:37 | 36.25395 | -70.15523 | 41010 ft | 486 kts | 48° |
| 2026-04-21 10:37 | 36.29887 | -70.09266 | 41009 ft | 486 kts | 48° |
| 2026-04-21 10:38 | 36.34376 | -70.03003 | 41008 ft | 486 kts | 48° |
| 2026-04-21 10:38 | 36.38857 | -69.96739 | 41006 ft | 485 kts | 48° |
| 2026-04-21 10:39 | 36.43335 | -69.90466 | 41008 ft | 485 kts | 48° |
| 2026-04-21 10:39 | 36.47806 | -69.84193 | 41006 ft | 485 kts | 48° |
| 2026-04-21 10:40 | 36.52273 | -69.77912 | 41004 ft | 485 kts | 48° |
| 2026-04-21 10:40 | 36.56734 | -69.71629 | 41006 ft | 485 kts | 48° |
| 2026-04-21 10:41 | 36.61191 | -69.65339 | 41004 ft | 484 kts | 48° |
| 2026-04-21 10:41 | 36.65644 | -69.59044 | 41004 ft | 484 kts | 49° |
| 2026-04-21 10:42 | 36.70092 | -69.52742 | 41003 ft | 484 kts | 49° |
| 2026-04-21 10:42 | 36.74534 | -69.46438 | 41002 ft | 484 kts | 49° |
| 2026-04-21 10:43 | 36.78973 | -69.40125 | 41001 ft | 484 kts | 49° |
| 2026-04-21 10:43 | 36.83408 | -69.33807 | 41003 ft | 484 kts | 49° |
| 2026-04-21 10:44 | 36.87843 | -69.27475 | 41004 ft | 485 kts | 49° |
| 2026-04-21 10:44 | 36.92279 | -69.21130 | 41004 ft | 485 kts | 49° |
| 2026-04-21 10:45 | 36.96719 | -69.14769 | 41008 ft | 486 kts | 49° |
| 2026-04-21 10:45 | 37.01158 | -69.08396 | 41012 ft | 486 kts | 49° |
| 2026-04-21 10:46 | 37.05599 | -69.02008 | 41011 ft | 487 kts | 49° |
| 2026-04-21 10:46 | 37.10038 | -68.95609 | 41010 ft | 487 kts | 49° |
| 2026-04-21 10:47 | 37.14478 | -68.89198 | 41009 ft | 487 kts | 49° |
| 2026-04-21 10:47 | 37.18909 | -68.82786 | 41009 ft | 487 kts | 49° |
| 2026-04-21 10:48 | 37.23339 | -68.76363 | 41013 ft | 487 kts | 49° |
| 2026-04-21 10:48 | 37.27764 | -68.69936 | 41010 ft | 486 kts | 49° |
| 2026-04-21 10:49 | 37.32183 | -68.63503 | 41010 ft | 486 kts | 49° |
| 2026-04-21 10:49 | 37.36596 | -68.57067 | 41008 ft | 486 kts | 49° |
| 2026-04-21 10:50 | 37.40260 | -68.51715 | 41011 ft | 486 kts | 49° |
| 2026-04-21 10:50 | 37.45407 | -68.44180 | 41007 ft | 485 kts | 49° |
| 2026-04-21 10:51 | 37.49801 | -68.37734 | 41005 ft | 485 kts | 49° |
| 2026-04-21 10:51 | 37.53452 | -68.32368 | 41005 ft | 485 kts | 49° |
| 2026-04-21 10:52 | 37.57838 | -68.25911 | 41005 ft | 485 kts | 49° |
| 2026-04-21 10:52 | 37.62217 | -68.19451 | 41002 ft | 484 kts | 49° |
| 2026-04-21 10:53 | 37.66591 | -68.12986 | 41003 ft | 484 kts | 49° |
| 2026-04-21 10:53 | 37.70959 | -68.06516 | 41001 ft | 484 kts | 49° |
| 2026-04-21 10:54 | 37.75324 | -68.00039 | 40999 ft | 484 kts | 49° |
| 2026-04-21 10:54 | 37.79684 | -67.93556 | 40999 ft | 484 kts | 49° |
| 2026-04-21 10:55 | 37.84038 | -67.87069 | 41000 ft | 484 kts | 49° |
| 2026-04-21 10:55 | 37.88385 | -67.80578 | 40998 ft | 483 kts | 50° |
| 2026-04-21 10:56 | 37.92731 | -67.74078 | 40999 ft | 483 kts | 50° |
| 2026-04-21 10:56 | 37.97071 | -67.67571 | 40998 ft | 483 kts | 50° |
| 2026-04-21 10:57 | 38.01407 | -67.61059 | 40997 ft | 483 kts | 50° |
| 2026-04-21 10:57 | 38.05736 | -67.54545 | 40995 ft | 483 kts | 50° |
| 2026-04-21 10:58 | 38.10063 | -67.48019 | 40996 ft | 483 kts | 50° |
| 2026-04-21 10:58 | 38.14385 | -67.41489 | 40997 ft | 483 kts | 50° |
| 2026-04-21 10:59 | 38.18712 | -67.34937 | 41000 ft | 485 kts | 50° |
| 2026-04-21 10:59 | 38.23052 | -67.28352 | 41003 ft | 487 kts | 50° |
| 2026-04-21 11:00 | 38.27400 | -67.21741 | 41009 ft | 488 kts | 50° |
| 2026-04-21 11:00 | 38.31748 | -67.15117 | 41009 ft | 487 kts | 50° |
| 2026-04-21 11:01 | 38.36082 | -67.08501 | 41006 ft | 486 kts | 50° |
| 2026-04-21 11:01 | 38.40403 | -67.01892 | 41004 ft | 484 kts | 50° |
| 2026-04-21 11:02 | 38.46824 | -66.92044 | 40997 ft | 483 kts | 50° |
| 2026-04-21 11:02 | 38.51126 | -66.85429 | 40999 ft | 485 kts | 50° |
| 2026-04-21 11:03 | 38.55435 | -66.78790 | 41003 ft | 486 kts | 50° |
| 2026-04-21 11:03 | 38.59751 | -66.72127 | 41006 ft | 487 kts | 50° |
| 2026-04-21 11:04 | 38.64205 | -66.65598 | 41039 ft | 487 kts | 41° |
| 2026-04-21 11:04 | 38.69227 | -66.59771 | 41005 ft | 487 kts | 42° |
| 2026-04-21 11:05 | 38.74225 | -66.53944 | 41007 ft | 485 kts | 42° |
| 2026-04-21 11:05 | 38.79203 | -66.48127 | 41004 ft | 484 kts | 42° |
| 2026-04-21 11:06 | 38.84170 | -66.42317 | 41001 ft | 483 kts | 42° |
| 2026-04-21 11:06 | 38.89174 | -66.36446 | 41002 ft | 485 kts | 42° |
| 2026-04-21 11:07 | 38.94155 | -66.30594 | 41008 ft | 486 kts | 42° |
| 2026-04-21 11:07 | 38.99149 | -66.24713 | 41011 ft | 487 kts | 42° |
| 2026-04-21 11:08 | 39.04110 | -66.18861 | 41010 ft | 487 kts | 42° |
| 2026-04-21 11:08 | 39.09129 | -66.12928 | 41009 ft | 486 kts | 42° |
| 2026-04-21 11:09 | 39.14101 | -66.07038 | 41009 ft | 485 kts | 42° |
| 2026-04-21 11:09 | 39.19062 | -66.01149 | 41007 ft | 484 kts | 42° |
| 2026-04-21 11:10 | 39.24014 | -65.95261 | 41005 ft | 484 kts | 43° |
| 2026-04-21 11:10 | 39.28926 | -65.89406 | 41002 ft | 483 kts | 43° |
| 2026-04-21 11:11 | 39.33861 | -65.83514 | 40996 ft | 483 kts | 43° |
| 2026-04-21 11:11 | 39.38802 | -65.77602 | 41002 ft | 485 kts | 43° |
| 2026-04-21 11:12 | 39.43757 | -65.71662 | 41005 ft | 486 kts | 43° |
| 2026-04-21 11:12 | 39.48759 | -65.65653 | 41009 ft | 488 kts | 43° |
| 2026-04-21 11:13 | 39.53722 | -65.59678 | 41009 ft | 487 kts | 43° |
| 2026-04-21 11:13 | 39.58675 | -65.53703 | 41009 ft | 486 kts | 43° |
| 2026-04-21 11:14 | 39.63577 | -65.47778 | 41006 ft | 485 kts | 43° |
| 2026-04-21 11:14 | 39.68502 | -65.41812 | 41004 ft | 484 kts | 43° |
| 2026-04-21 11:15 | 39.73415 | -65.35849 | 41001 ft | 483 kts | 43° |
| 2026-04-21 11:15 | 39.78325 | -65.29878 | 40998 ft | 484 kts | 43° |
| 2026-04-21 11:16 | 39.83245 | -65.23883 | 41001 ft | 485 kts | 43° |
| 2026-04-21 11:16 | 39.88177 | -65.17860 | 41006 ft | 487 kts | 43° |
| 2026-04-21 11:17 | 39.93116 | -65.11815 | 41009 ft | 487 kts | 43° |
| 2026-04-21 11:17 | 39.98050 | -65.05765 | 41012 ft | 487 kts | 43° |
| 2026-04-21 11:18 | 40.02971 | -64.99718 | 41011 ft | 486 kts | 43° |
| 2026-04-21 11:18 | 40.07888 | -64.93663 | 41011 ft | 486 kts | 43° |
| 2026-04-21 11:19 | 40.12796 | -64.87606 | 41008 ft | 485 kts | 43° |
| 2026-04-21 11:19 | 40.17698 | -64.81545 | 41004 ft | 485 kts | 43° |
| 2026-04-21 11:20 | 40.22591 | -64.75482 | 41003 ft | 484 kts | 43° |
| 2026-04-21 11:20 | 40.27478 | -64.69414 | 41002 ft | 484 kts | 43° |
| 2026-04-21 11:21 | 40.32361 | -64.63338 | 41000 ft | 484 kts | 43° |
| 2026-04-21 11:21 | 40.37237 | -64.57257 | 41000 ft | 484 kts | 43° |
| 2026-04-21 11:22 | 40.42108 | -64.51171 | 40999 ft | 483 kts | 43° |
| 2026-04-21 11:22 | 40.46971 | -64.45081 | 41000 ft | 483 kts | 43° |
| 2026-04-21 11:23 | 40.51829 | -64.38985 | 40995 ft | 483 kts | 43° |
| 2026-04-21 11:23 | 40.56684 | -64.32880 | 40995 ft | 483 kts | 44° |
| 2026-04-21 11:24 | 40.61545 | -64.26755 | 40998 ft | 484 kts | 44° |
| 2026-04-21 11:24 | 40.66411 | -64.20609 | 41003 ft | 485 kts | 44° |
| 2026-04-21 11:25 | 40.71285 | -64.14442 | 41005 ft | 486 kts | 44° |
| 2026-04-21 11:25 | 40.76162 | -64.08256 | 41009 ft | 487 kts | 44° |
| 2026-04-21 11:26 | 40.81041 | -64.02055 | 41010 ft | 487 kts | 44° |
| 2026-04-21 11:26 | 40.85922 | -63.95838 | 41010 ft | 487 kts | 44° |
| 2026-04-21 11:27 | 40.90798 | -63.89614 | 41010 ft | 487 kts | 44° |
| 2026-04-21 11:27 | 40.95667 | -63.83386 | 41010 ft | 487 kts | 44° |
| 2026-04-21 11:28 | 41.00531 | -63.77150 | 41009 ft | 487 kts | 44° |
| 2026-04-21 11:28 | 41.05392 | -63.70905 | 41010 ft | 487 kts | 44° |
| 2026-04-21 11:29 | 41.10249 | -63.64652 | 41007 ft | 487 kts | 44° |
| 2026-04-21 11:29 | 41.15098 | -63.58395 | 41009 ft | 486 kts | 44° |
| 2026-04-21 11:30 | 41.19946 | -63.52126 | 41007 ft | 486 kts | 44° |
| 2026-04-21 11:30 | 41.24790 | -63.45848 | 41007 ft | 486 kts | 44° |
| 2026-04-21 11:31 | 41.29628 | -63.39564 | 41009 ft | 486 kts | 44° |
| 2026-04-21 11:31 | 41.34462 | -63.33272 | 41005 ft | 486 kts | 44° |
| 2026-04-21 11:32 | 41.39292 | -63.26970 | 41008 ft | 486 kts | 44° |
| 2026-04-21 11:32 | 41.44119 | -63.20660 | 41007 ft | 486 kts | 44° |
| 2026-04-21 11:33 | 41.48908 | -63.14385 | 41007 ft | 486 kts | 44° |
| 2026-04-21 11:33 | 41.53723 | -63.08061 | 41005 ft | 486 kts | 44° |
| 2026-04-21 11:34 | 41.58539 | -63.01723 | 41004 ft | 486 kts | 44° |
| 2026-04-21 11:34 | 41.63347 | -62.95382 | 41009 ft | 486 kts | 44° |
| 2026-04-21 11:35 | 41.67375 | -62.90058 | 41006 ft | 486 kts | 44° |
| 2026-04-21 11:35 | 41.72173 | -62.83704 | 41006 ft | 485 kts | 44° |
| 2026-04-21 11:36 | 41.76969 | -62.77338 | 41005 ft | 485 kts | 44° |
| 2026-04-21 11:36 | 41.81760 | -62.70964 | 41005 ft | 485 kts | 45° |
| 2026-04-21 11:37 | 41.86549 | -62.64579 | 41006 ft | 485 kts | 45° |
| 2026-04-21 11:37 | 41.91331 | -62.58189 | 41003 ft | 485 kts | 45° |
| 2026-04-21 11:38 | 41.96108 | -62.51792 | 41002 ft | 485 kts | 45° |
| 2026-04-21 11:38 | 42.00884 | -62.45381 | 41005 ft | 485 kts | 45° |
| 2026-04-21 11:39 | 42.05657 | -62.38960 | 41004 ft | 485 kts | 45° |
| 2026-04-21 11:39 | 42.10423 | -62.32534 | 41001 ft | 485 kts | 45° |
| 2026-04-21 11:40 | 42.15151 | -62.26145 | 41004 ft | 485 kts | 45° |
| 2026-04-21 11:40 | 42.19911 | -62.19698 | 41002 ft | 485 kts | 45° |
| 2026-04-21 11:41 | 42.24664 | -62.13246 | 41002 ft | 485 kts | 45° |
| 2026-04-21 11:41 | 42.29448 | -62.06738 | 41002 ft | 485 kts | 45° |
| 2026-04-21 11:42 | 42.34192 | -62.00268 | 41001 ft | 485 kts | 45° |
| 2026-04-21 11:42 | 42.38936 | -61.93784 | 41002 ft | 485 kts | 45° |
| 2026-04-21 11:43 | 42.43644 | -61.87335 | 41002 ft | 485 kts | 45° |
| 2026-04-21 11:43 | 42.48377 | -61.80836 | 41002 ft | 485 kts | 45° |
| 2026-04-21 11:44 | 42.53109 | -61.74323 | 41005 ft | 485 kts | 45° |
| 2026-04-21 11:44 | 42.57834 | -61.67807 | 41006 ft | 485 kts | 45° |
| 2026-04-21 11:45 | 42.62554 | -61.61280 | 41001 ft | 484 kts | 45° |
| 2026-04-21 11:45 | 42.67272 | -61.54743 | 41003 ft | 484 kts | 45° |
| 2026-04-21 11:46 | 42.71985 | -61.48197 | 40999 ft | 484 kts | 45° |
| 2026-04-21 11:46 | 42.76691 | -61.41646 | 41000 ft | 484 kts | 45° |
| 2026-04-21 11:47 | 42.81398 | -61.35079 | 40999 ft | 484 kts | 45° |
| 2026-04-21 11:47 | 42.86096 | -61.28508 | 40999 ft | 484 kts | 45° |
| 2026-04-21 11:48 | 42.90793 | -61.21923 | 41001 ft | 484 kts | 45° |
| 2026-04-21 11:48 | 42.95485 | -61.15330 | 41001 ft | 484 kts | 46° |
| 2026-04-21 11:49 | 43.00172 | -61.08729 | 40998 ft | 484 kts | 46° |
| 2026-04-21 11:49 | 43.04855 | -61.02119 | 40999 ft | 484 kts | 46° |
| 2026-04-21 11:50 | 43.09532 | -60.95501 | 40999 ft | 484 kts | 46° |
| 2026-04-21 11:50 | 43.14207 | -60.88871 | 41001 ft | 484 kts | 46° |
| 2026-04-21 11:51 | 43.18875 | -60.82235 | 40999 ft | 484 kts | 46° |
| 2026-04-21 11:51 | 43.23502 | -60.75642 | 40998 ft | 484 kts | 46° |
| 2026-04-21 11:52 | 43.28163 | -60.68984 | 41000 ft | 484 kts | 46° |
| 2026-04-21 11:52 | 43.32821 | -60.62315 | 40999 ft | 484 kts | 46° |
| 2026-04-21 11:53 | 43.37475 | -60.55636 | 40997 ft | 484 kts | 46° |
| 2026-04-21 11:53 | 43.42122 | -60.48951 | 40999 ft | 483 kts | 46° |
| 2026-04-21 11:54 | 43.46765 | -60.42257 | 40998 ft | 484 kts | 46° |
| 2026-04-21 11:54 | 43.51389 | -60.35573 | 41002 ft | 486 kts | 46° |
| 2026-04-21 11:55 | 43.56048 | -60.28824 | 41006 ft | 486 kts | 46° |
| 2026-04-21 11:55 | 43.60711 | -60.22053 | 41009 ft | 487 kts | 46° |
| 2026-04-21 11:56 | 43.65373 | -60.15265 | 41007 ft | 487 kts | 46° |
| 2026-04-21 11:56 | 43.70033 | -60.08465 | 41010 ft | 487 kts | 46° |
| 2026-04-21 11:57 | 43.74686 | -60.01658 | 41009 ft | 487 kts | 46° |
| 2026-04-21 11:57 | 43.79334 | -59.94843 | 41011 ft | 487 kts | 46° |
| 2026-04-21 11:58 | 43.83973 | -59.88023 | 41010 ft | 486 kts | 46° |
| 2026-04-21 11:58 | 43.88607 | -59.81196 | 41010 ft | 486 kts | 46° |
| 2026-04-21 11:59 | 43.93232 | -59.74365 | 41007 ft | 486 kts | 46° |
| 2026-04-21 11:59 | 43.97854 | -59.67521 | 41007 ft | 486 kts | 46° |
| 2026-04-21 12:00 | 44.02466 | -59.60675 | 41004 ft | 485 kts | 47° |
| 2026-04-21 12:00 | 44.07074 | -59.53818 | 41002 ft | 485 kts | 47° |
| 2026-04-21 12:01 | 44.11673 | -59.46958 | 41003 ft | 485 kts | 47° |
| 2026-04-21 12:01 | 44.16263 | -59.40095 | 40999 ft | 484 kts | 47° |
| 2026-04-21 12:02 | 44.23142 | -59.29777 | 40997 ft | 484 kts | 47° |
| 2026-04-21 12:03 | 44.27716 | -59.22895 | 40997 ft | 484 kts | 47° |
| 2026-04-21 12:03 | 44.32284 | -59.16007 | 40995 ft | 484 kts | 47° |
| 2026-04-21 12:04 | 44.36858 | -59.09091 | 40998 ft | 485 kts | 47° |
| 2026-04-21 12:04 | 44.41445 | -59.02139 | 41004 ft | 487 kts | 47° |
| 2026-04-21 12:05 | 44.46043 | -58.95153 | 41013 ft | 488 kts | 47° |
| 2026-04-21 12:05 | 44.50635 | -58.88158 | 41011 ft | 487 kts | 47° |
| 2026-04-21 12:06 | 44.55215 | -58.81165 | 41009 ft | 486 kts | 47° |
| 2026-04-21 12:06 | 44.59780 | -58.74176 | 41005 ft | 485 kts | 47° |
| 2026-04-21 12:07 | 44.64328 | -58.67195 | 41004 ft | 484 kts | 47° |
| 2026-04-21 12:07 | 44.68870 | -58.60208 | 41000 ft | 484 kts | 47° |
| 2026-04-21 12:08 | 44.73407 | -58.53210 | 40999 ft | 485 kts | 47° |
| 2026-04-21 12:08 | 44.77954 | -58.46179 | 41002 ft | 486 kts | 47° |
| 2026-04-21 12:09 | 44.82511 | -58.39114 | 41010 ft | 488 kts | 47° |
| 2026-04-21 12:09 | 44.87075 | -58.32021 | 41010 ft | 488 kts | 47° |
| 2026-04-21 12:10 | 44.91624 | -58.24933 | 41008 ft | 487 kts | 47° |
| 2026-04-21 12:10 | 44.96157 | -58.17851 | 41007 ft | 485 kts | 47° |
| 2026-04-21 12:11 | 45.00641 | -58.10829 | 41001 ft | 484 kts | 48° |
| 2026-04-21 12:11 | 45.05177 | -58.03708 | 40997 ft | 485 kts | 48° |
| 2026-04-21 12:12 | 45.09689 | -57.96605 | 40999 ft | 486 kts | 48° |
| 2026-04-21 12:12 | 45.14209 | -57.89472 | 41002 ft | 487 kts | 48° |
| 2026-04-21 12:13 | 45.18732 | -57.82315 | 41007 ft | 488 kts | 48° |
| 2026-04-21 12:13 | 45.23261 | -57.75131 | 41010 ft | 488 kts | 48° |
| 2026-04-21 12:14 | 45.27779 | -57.67947 | 41009 ft | 487 kts | 48° |
| 2026-04-21 12:14 | 45.32276 | -57.60776 | 41005 ft | 486 kts | 48° |
| 2026-04-21 12:15 | 45.36759 | -57.53610 | 41000 ft | 484 kts | 48° |
| 2026-04-21 12:15 | 45.41200 | -57.46491 | 40997 ft | 484 kts | 48° |
| 2026-04-21 12:16 | 45.45699 | -57.39261 | 40997 ft | 485 kts | 48° |
| 2026-04-21 12:16 | 45.50175 | -57.32050 | 41001 ft | 487 kts | 48° |
| 2026-04-21 12:17 | 45.54631 | -57.24853 | 41006 ft | 488 kts | 48° |
| 2026-04-21 12:17 | 45.59121 | -57.17581 | 41008 ft | 489 kts | 49° |
| 2026-04-21 12:18 | 45.62880 | -57.11479 | 41012 ft | 487 kts | 49° |
| 2026-04-21 12:18 | 45.67348 | -57.04208 | 41009 ft | 486 kts | 49° |
| 2026-04-21 12:19 | 45.71801 | -56.96943 | 41004 ft | 485 kts | 49° |
| 2026-04-21 12:19 | 45.76236 | -56.89687 | 41002 ft | 484 kts | 49° |
| 2026-04-21 12:20 | 45.80667 | -56.82418 | 40999 ft | 485 kts | 49° |
| 2026-04-21 12:20 | 45.85075 | -56.75171 | 41000 ft | 486 kts | 49° |
| 2026-04-21 12:21 | 45.89519 | -56.67842 | 41004 ft | 487 kts | 49° |
| 2026-04-21 12:21 | 45.93970 | -56.60483 | 41008 ft | 488 kts | 49° |
| 2026-04-21 12:22 | 45.98424 | -56.53100 | 41010 ft | 489 kts | 49° |
| 2026-04-21 12:22 | 46.02868 | -56.45714 | 41013 ft | 488 kts | 49° |
| 2026-04-21 12:23 | 46.07297 | -56.38332 | 41009 ft | 486 kts | 49° |
| 2026-04-21 12:23 | 46.11710 | -56.30958 | 41004 ft | 485 kts | 49° |
| 2026-04-21 12:24 | 46.16108 | -56.23588 | 40999 ft | 484 kts | 49° |
| 2026-04-21 12:24 | 46.20497 | -56.16215 | 40998 ft | 484 kts | 49° |
| 2026-04-21 12:25 | 46.24881 | -56.08830 | 40994 ft | 484 kts | 49° |
| 2026-04-21 12:25 | 46.29268 | -56.01421 | 40998 ft | 486 kts | 49° |
| 2026-04-21 12:26 | 46.33665 | -55.93974 | 41001 ft | 487 kts | 49° |
| 2026-04-21 12:26 | 46.38059 | -55.86511 | 41004 ft | 488 kts | 49° |
| 2026-04-21 12:27 | 46.42458 | -55.79021 | 41008 ft | 488 kts | 49° |
| 2026-04-21 12:27 | 46.46852 | -55.71517 | 41010 ft | 488 kts | 49° |
| 2026-04-21 12:28 | 46.51240 | -55.64004 | 41010 ft | 488 kts | 50° |
| 2026-04-21 12:28 | 46.55625 | -55.56477 | 41008 ft | 488 kts | 50° |
| 2026-04-21 12:29 | 46.60000 | -55.48944 | 41010 ft | 488 kts | 50° |
| 2026-04-21 12:29 | 46.64371 | -55.41398 | 41008 ft | 488 kts | 50° |
| 2026-04-21 12:30 | 46.68735 | -55.33844 | 41009 ft | 487 kts | 50° |
| 2026-04-21 12:30 | 46.73092 | -55.26281 | 41010 ft | 487 kts | 50° |
| 2026-04-21 12:31 | 46.77443 | -55.18707 | 41007 ft | 487 kts | 50° |
| 2026-04-21 12:31 | 46.81789 | -55.11122 | 41005 ft | 487 kts | 50° |
| 2026-04-21 12:32 | 46.86125 | -55.03533 | 41006 ft | 486 kts | 50° |
| 2026-04-21 12:32 | 46.90456 | -54.95932 | 41006 ft | 486 kts | 50° |
| 2026-04-21 12:33 | 46.94776 | -54.88327 | 41004 ft | 486 kts | 50° |
| 2026-04-21 12:33 | 46.99091 | -54.80712 | 41003 ft | 486 kts | 50° |
| 2026-04-21 12:34 | 47.03396 | -54.73093 | 41000 ft | 485 kts | 50° |
| 2026-04-21 12:34 | 47.07691 | -54.65469 | 41001 ft | 485 kts | 50° |
| 2026-04-21 12:35 | 47.11980 | -54.57837 | 40996 ft | 484 kts | 50° |
| 2026-04-21 12:35 | 47.16267 | -54.50185 | 40998 ft | 486 kts | 50° |
| 2026-04-21 12:36 | 47.20563 | -54.42497 | 41003 ft | 487 kts | 50° |
| 2026-04-21 12:36 | 47.24858 | -54.34787 | 41006 ft | 487 kts | 50° |
| 2026-04-21 12:37 | 47.29153 | -54.27057 | 41008 ft | 488 kts | 50° |
| 2026-04-21 12:37 | 47.33445 | -54.19309 | 41012 ft | 488 kts | 51° |
| 2026-04-21 12:38 | 47.37731 | -54.11550 | 41013 ft | 488 kts | 51° |
| 2026-04-21 12:38 | 47.42013 | -54.03777 | 41011 ft | 488 kts | 51° |
| 2026-04-21 12:39 | 47.46289 | -53.95993 | 41009 ft | 488 kts | 51° |
| 2026-04-21 12:39 | 47.50555 | -53.88204 | 41012 ft | 487 kts | 51° |
| 2026-04-21 12:40 | 47.54811 | -53.80411 | 41007 ft | 487 kts | 51° |
| 2026-04-21 12:40 | 47.59057 | -53.72615 | 41004 ft | 486 kts | 51° |
| 2026-04-21 12:41 | 47.63289 | -53.64821 | 41002 ft | 485 kts | 51° |
| 2026-04-21 12:41 | 47.67513 | -53.57022 | 41000 ft | 485 kts | 51° |
| 2026-04-21 12:42 | 47.71734 | -53.49203 | 41001 ft | 486 kts | 51° |
| 2026-04-21 12:42 | 47.75957 | -53.41359 | 41004 ft | 487 kts | 51° |
| 2026-04-21 12:43 | 47.80188 | -53.33478 | 41006 ft | 488 kts | 51° |
| 2026-04-21 12:43 | 47.84418 | -53.25575 | 41006 ft | 488 kts | 51° |
| 2026-04-21 12:44 | 47.88649 | -53.17647 | 41008 ft | 489 kts | 51° |
| 2026-04-21 12:44 | 47.92874 | -53.09707 | 41012 ft | 489 kts | 51° |
| 2026-04-21 12:45 | 47.97088 | -53.01765 | 41007 ft | 487 kts | 51° |
| 2026-04-21 12:45 | 48.01281 | -52.93840 | 41003 ft | 485 kts | 51° |
| 2026-04-21 12:46 | 48.05456 | -52.85924 | 41001 ft | 485 kts | 51° |
| 2026-04-21 12:46 | 48.09628 | -52.77992 | 41000 ft | 486 kts | 52° |
| 2026-04-21 12:47 | 48.13800 | -52.70037 | 41002 ft | 486 kts | 52° |
| 2026-04-21 12:47 | 48.17968 | -52.62065 | 41001 ft | 486 kts | 52° |
| 2026-04-21 12:48 | 48.22129 | -52.54083 | 41002 ft | 486 kts | 52° |
| 2026-04-21 12:48 | 48.26289 | -52.46080 | 41001 ft | 486 kts | 52° |
| 2026-04-21 12:49 | 48.30412 | -52.38124 | 41001 ft | 486 kts | 52° |
| 2026-04-21 12:49 | 48.34583 | -52.30053 | 41003 ft | 486 kts | 52° |
| 2026-04-21 12:50 | 48.38718 | -52.22025 | 41001 ft | 485 kts | 52° |
| 2026-04-21 12:50 | 48.42843 | -52.13995 | 40999 ft | 485 kts | 52° |
| 2026-04-21 12:51 | 48.46960 | -52.05957 | 40996 ft | 484 kts | 52° |
| 2026-04-21 12:51 | 48.50646 | -51.97500 | 41029 ft | 485 kts | 68° |
| 2026-04-21 12:52 | 48.53117 | -51.88060 | 41013 ft | 488 kts | 69° |
| 2026-04-21 12:52 | 48.55584 | -51.78515 | 41008 ft | 488 kts | 68° |
| 2026-04-21 12:53 | 48.58056 | -51.68966 | 41011 ft | 488 kts | 69° |
| 2026-04-21 12:53 | 48.60509 | -51.59413 | 41010 ft | 488 kts | 69° |
| 2026-04-21 12:54 | 48.62959 | -51.49855 | 41008 ft | 487 kts | 69° |
| 2026-04-21 12:54 | 48.65395 | -51.40297 | 41008 ft | 487 kts | 69° |
| 2026-04-21 12:55 | 48.67839 | -51.30674 | 41007 ft | 486 kts | 69° |
| 2026-04-21 12:55 | 48.70238 | -51.21184 | 41010 ft | 486 kts | 69° |
| 2026-04-21 12:56 | 48.72646 | -51.11624 | 41007 ft | 485 kts | 69° |
| 2026-04-21 12:56 | 48.75040 | -51.02075 | 41001 ft | 485 kts | 69° |
| 2026-04-21 12:57 | 48.77426 | -50.92518 | 41001 ft | 485 kts | 69° |
| 2026-04-21 12:57 | 48.79826 | -50.82864 | 41004 ft | 486 kts | 69° |
| 2026-04-21 12:58 | 48.82190 | -50.73312 | 41008 ft | 487 kts | 69° |
| 2026-04-21 12:58 | 48.84564 | -50.63680 | 41013 ft | 488 kts | 69° |
| 2026-04-21 12:59 | 48.86550 | -50.55591 | 41011 ft | 488 kts | 69° |
| 2026-04-21 12:59 | 48.89297 | -50.44352 | 41011 ft | 488 kts | 70° |
| 2026-04-21 13:00 | 48.91653 | -50.34667 | 41011 ft | 488 kts | 70° |
| 2026-04-21 13:00 | 48.93618 | -50.26557 | 41008 ft | 488 kts | 70° |
| 2026-04-21 13:01 | 48.95957 | -50.16865 | 41009 ft | 488 kts | 70° |
| 2026-04-21 13:01 | 48.98284 | -50.07178 | 41008 ft | 487 kts | 70° |
| 2026-04-21 13:02 | 49.00658 | -49.97523 | 41014 ft | 486 kts | 68° |
| 2026-04-21 13:02 | 49.04242 | -49.83074 | 41004 ft | 486 kts | 69° |
| 2026-04-21 13:03 | 49.06684 | -49.73470 | 41003 ft | 486 kts | 69° |
| 2026-04-21 13:03 | 49.09064 | -49.63837 | 41003 ft | 485 kts | 69° |
| 2026-04-21 13:04 | 49.11464 | -49.54216 | 41001 ft | 485 kts | 69° |
| 2026-04-21 13:04 | 49.13841 | -49.44580 | 41000 ft | 485 kts | 69° |
| 2026-04-21 13:05 | 49.16200 | -49.35006 | 41002 ft | 486 kts | 69° |
| 2026-04-21 13:05 | 49.18570 | -49.25328 | 41005 ft | 487 kts | 69° |
| 2026-04-21 13:06 | 49.20942 | -49.15608 | 41009 ft | 489 kts | 69° |
| 2026-04-21 13:06 | 49.23327 | -49.05790 | 41011 ft | 489 kts | 69° |
| 2026-04-21 13:07 | 49.25686 | -48.96037 | 41010 ft | 488 kts | 70° |
| 2026-04-21 13:07 | 49.28030 | -48.86301 | 41009 ft | 487 kts | 70° |
| 2026-04-21 13:08 | 49.30347 | -48.76635 | 41008 ft | 486 kts | 70° |
| 2026-04-21 13:08 | 49.32683 | -48.66847 | 41002 ft | 485 kts | 70° |
| 2026-04-21 13:09 | 49.34992 | -48.57125 | 40999 ft | 485 kts | 70° |
| 2026-04-21 13:09 | 49.37291 | -48.47404 | 40999 ft | 486 kts | 70° |
| 2026-04-21 13:10 | 49.39575 | -48.37704 | 41001 ft | 487 kts | 70° |
| 2026-04-21 13:10 | 49.41873 | -48.27902 | 41005 ft | 488 kts | 70° |
| 2026-04-21 13:11 | 49.44167 | -48.18070 | 41013 ft | 489 kts | 70° |
| 2026-04-21 13:11 | 49.46452 | -48.08229 | 41011 ft | 488 kts | 70° |
| 2026-04-21 13:12 | 49.48723 | -47.98408 | 41007 ft | 487 kts | 70° |
| 2026-04-21 13:12 | 49.50979 | -47.88605 | 41003 ft | 486 kts | 70° |
| 2026-04-21 13:13 | 49.53222 | -47.78813 | 40998 ft | 485 kts | 70° |
| 2026-04-21 13:13 | 49.55457 | -47.69010 | 41000 ft | 486 kts | 70° |
| 2026-04-21 13:14 | 49.57692 | -47.59166 | 41000 ft | 487 kts | 71° |
| 2026-04-21 13:14 | 49.59924 | -47.49286 | 41007 ft | 489 kts | 71° |
| 2026-04-21 13:15 | 49.62151 | -47.39381 | 41011 ft | 490 kts | 71° |
| 2026-04-21 13:15 | 49.64370 | -47.29463 | 41010 ft | 488 kts | 71° |
| 2026-04-21 13:16 | 49.66574 | -47.19569 | 41010 ft | 487 kts | 71° |
| 2026-04-21 13:16 | 49.68765 | -47.09689 | 41004 ft | 486 kts | 71° |
| 2026-04-21 13:17 | 49.70940 | -46.99829 | 40998 ft | 485 kts | 71° |
| 2026-04-21 13:17 | 49.73109 | -46.89950 | 41001 ft | 486 kts | 71° |
| 2026-04-21 13:18 | 49.75277 | -46.80031 | 41002 ft | 487 kts | 71° |
| 2026-04-21 13:18 | 49.77440 | -46.70088 | 41006 ft | 488 kts | 71° |
| 2026-04-21 13:19 | 49.79600 | -46.60108 | 41010 ft | 489 kts | 71° |
| 2026-04-21 13:19 | 49.81753 | -46.50115 | 41009 ft | 489 kts | 71° |
| 2026-04-21 13:20 | 49.83892 | -46.40134 | 41011 ft | 488 kts | 71° |
| 2026-04-21 13:20 | 49.86020 | -46.30155 | 41009 ft | 487 kts | 71° |
| 2026-04-21 13:21 | 49.88138 | -46.20178 | 41007 ft | 487 kts | 72° |
| 2026-04-21 13:21 | 49.90245 | -46.10202 | 41006 ft | 486 kts | 72° |
| 2026-04-21 13:22 | 49.92341 | -46.00229 | 41002 ft | 486 kts | 72° |
| 2026-04-21 13:22 | 49.94430 | -45.90238 | 41005 ft | 486 kts | 72° |
| 2026-04-21 13:23 | 49.96510 | -45.80245 | 41001 ft | 486 kts | 72° |
| 2026-04-21 13:23 | 49.98582 | -45.70236 | 41004 ft | 486 kts | 72° |
| 2026-04-21 13:24 | 50.00644 | -45.60227 | 41001 ft | 486 kts | 72° |
| 2026-04-21 13:24 | 50.02697 | -45.50214 | 41004 ft | 486 kts | 72° |
| 2026-04-21 13:25 | 50.04740 | -45.40193 | 41001 ft | 486 kts | 72° |
| 2026-04-21 13:25 | 50.06774 | -45.30168 | 41000 ft | 486 kts | 72° |
| 2026-04-21 13:26 | 50.08800 | -45.20135 | 41001 ft | 486 kts | 72° |
| 2026-04-21 13:26 | 50.10816 | -45.10095 | 41000 ft | 486 kts | 72° |
| 2026-04-21 13:27 | 50.12811 | -45.00115 | 40998 ft | 486 kts | 72° |
| 2026-04-21 13:27 | 50.14808 | -44.90067 | 40999 ft | 485 kts | 73° |
| 2026-04-21 13:28 | 50.16798 | -44.80007 | 40999 ft | 485 kts | 73° |
| 2026-04-21 13:28 | 50.18778 | -44.69940 | 40999 ft | 485 kts | 73° |
| 2026-04-21 13:29 | 50.20750 | -44.59865 | 40999 ft | 485 kts | 73° |
| 2026-04-21 13:29 | 50.22711 | -44.49789 | 40999 ft | 485 kts | 73° |
| 2026-04-21 13:30 | 50.24665 | -44.39700 | 40998 ft | 485 kts | 73° |
| 2026-04-21 13:30 | 50.26610 | -44.29604 | 40998 ft | 485 kts | 73° |
| 2026-04-21 13:31 | 50.28546 | -44.19501 | 40999 ft | 485 kts | 73° |
| 2026-04-21 13:31 | 50.30472 | -44.09395 | 41000 ft | 485 kts | 73° |
| 2026-04-21 13:32 | 50.32392 | -43.99267 | 41000 ft | 486 kts | 73° |
| 2026-04-21 13:32 | 50.34310 | -43.89092 | 41008 ft | 488 kts | 73° |
| 2026-04-21 13:33 | 50.36227 | -43.78873 | 41011 ft | 490 kts | 73° |
| 2026-04-21 13:33 | 50.38135 | -43.68637 | 41008 ft | 489 kts | 73° |
| 2026-04-21 13:34 | 50.40032 | -43.58412 | 41008 ft | 488 kts | 73° |
| 2026-04-21 13:34 | 50.41912 | -43.48217 | 41009 ft | 486 kts | 74° |
| 2026-04-21 13:35 | 50.43780 | -43.38032 | 41000 ft | 486 kts | 74° |
| 2026-04-21 13:35 | 50.45641 | -43.27832 | 41000 ft | 487 kts | 74° |
| 2026-04-21 13:36 | 50.47496 | -43.17605 | 41002 ft | 488 kts | 74° |
| 2026-04-21 13:36 | 50.49344 | -43.07359 | 41008 ft | 488 kts | 74° |
| 2026-04-21 13:37 | 50.51187 | -42.97083 | 41009 ft | 489 kts | 74° |
| 2026-04-21 13:37 | 50.53023 | -42.86785 | 41011 ft | 489 kts | 74° |
| 2026-04-21 13:38 | 50.54850 | -42.76483 | 41010 ft | 489 kts | 74° |
| 2026-04-21 13:38 | 50.56664 | -42.66190 | 41009 ft | 488 kts | 74° |
| 2026-04-21 13:39 | 50.58469 | -42.55892 | 41010 ft | 488 kts | 75° |
| 2026-04-21 13:39 | 50.60263 | -42.45594 | 41008 ft | 488 kts | 75° |
| 2026-04-21 13:40 | 50.62048 | -42.35296 | 41005 ft | 487 kts | 75° |
| 2026-04-21 13:40 | 50.63821 | -42.25002 | 41007 ft | 487 kts | 75° |
| 2026-04-21 13:41 | 50.65584 | -42.14701 | 41002 ft | 487 kts | 75° |
| 2026-04-21 13:41 | 50.67337 | -42.04400 | 41003 ft | 486 kts | 75° |
| 2026-04-21 13:42 | 50.68787 | -41.95840 | 41000 ft | 486 kts | 75° |
| 2026-04-21 13:42 | 50.70520 | -41.85543 | 41001 ft | 486 kts | 75° |
| 2026-04-21 13:43 | 50.72245 | -41.75236 | 40999 ft | 486 kts | 75° |
| 2026-04-21 13:43 | 50.73960 | -41.64929 | 41000 ft | 485 kts | 75° |
| 2026-04-21 13:44 | 50.75665 | -41.54618 | 40997 ft | 485 kts | 75° |
| 2026-04-21 13:44 | 50.77361 | -41.44298 | 40997 ft | 486 kts | 75° |
| 2026-04-21 13:45 | 50.79052 | -41.33945 | 41000 ft | 488 kts | 75° |
| 2026-04-21 13:45 | 50.80741 | -41.23543 | 41009 ft | 489 kts | 76° |
| 2026-04-21 13:46 | 50.82423 | -41.13118 | 41009 ft | 489 kts | 76° |
| 2026-04-21 13:46 | 50.84095 | -41.02689 | 41011 ft | 489 kts | 76° |
| 2026-04-21 13:47 | 50.85756 | -40.92262 | 41011 ft | 489 kts | 76° |
| 2026-04-21 13:47 | 50.87409 | -40.81826 | 41011 ft | 489 kts | 76° |
| 2026-04-21 13:48 | 50.89051 | -40.71384 | 41012 ft | 489 kts | 76° |
| 2026-04-21 13:48 | 50.90684 | -40.60939 | 41008 ft | 488 kts | 76° |
| 2026-04-21 13:49 | 50.92307 | -40.50487 | 41010 ft | 488 kts | 76° |
| 2026-04-21 13:49 | 50.93920 | -40.40036 | 41011 ft | 488 kts | 76° |
| 2026-04-21 13:50 | 50.95524 | -40.29574 | 41008 ft | 488 kts | 76° |
| 2026-04-21 13:50 | 50.97119 | -40.19106 | 41007 ft | 488 kts | 76° |
| 2026-04-21 13:51 | 50.98703 | -40.08638 | 41008 ft | 488 kts | 76° |
| 2026-04-21 13:51 | 51.00277 | -39.98158 | 41009 ft | 488 kts | 77° |
| 2026-04-21 13:52 | 51.01789 | -39.87653 | 41010 ft | 488 kts | 77° |
| 2026-04-21 13:52 | 51.03303 | -39.77150 | 41009 ft | 488 kts | 77° |
| 2026-04-21 13:53 | 51.04804 | -39.66642 | 41008 ft | 488 kts | 77° |
| 2026-04-21 13:53 | 51.06294 | -39.56134 | 41007 ft | 487 kts | 77° |
| 2026-04-21 13:54 | 51.07777 | -39.45617 | 41005 ft | 487 kts | 77° |
| 2026-04-21 13:54 | 51.09248 | -39.35095 | 41007 ft | 487 kts | 77° |
| 2026-04-21 13:55 | 51.10711 | -39.24567 | 41005 ft | 487 kts | 77° |
| 2026-04-21 13:55 | 51.12163 | -39.14040 | 41005 ft | 487 kts | 77° |
| 2026-04-21 13:56 | 51.13606 | -39.03502 | 41004 ft | 487 kts | 78° |
| 2026-04-21 13:56 | 51.15040 | -38.92959 | 41006 ft | 487 kts | 78° |
| 2026-04-21 13:57 | 51.16464 | -38.82411 | 41006 ft | 487 kts | 78° |
| 2026-04-21 13:57 | 51.17877 | -38.71862 | 41009 ft | 487 kts | 78° |
| 2026-04-21 13:58 | 51.19282 | -38.61302 | 41005 ft | 487 kts | 78° |
| 2026-04-21 13:58 | 51.20677 | -38.50737 | 41005 ft | 487 kts | 78° |
| 2026-04-21 13:59 | 51.22062 | -38.40165 | 41006 ft | 487 kts | 78° |
| 2026-04-21 13:59 | 51.23437 | -38.29595 | 41004 ft | 487 kts | 78° |
| 2026-04-21 14:00 | 51.24804 | -38.19012 | 41005 ft | 487 kts | 78° |
| 2026-04-21 14:00 | 51.26160 | -38.08425 | 41003 ft | 487 kts | 78° |
| 2026-04-21 14:01 | 51.27507 | -37.97833 | 41005 ft | 487 kts | 78° |
| 2026-04-21 14:01 | 51.28843 | -37.87244 | 41005 ft | 486 kts | 78° |
| 2026-04-21 14:02 | 51.30161 | -37.76715 | 41002 ft | 486 kts | 78° |
| 2026-04-21 14:03 | 51.32134 | -37.60807 | 41002 ft | 486 kts | 79° |
| 2026-04-21 14:03 | 51.33436 | -37.50196 | 41004 ft | 486 kts | 79° |
| 2026-04-21 14:04 | 51.34728 | -37.39587 | 41002 ft | 486 kts | 79° |
| 2026-04-21 14:04 | 51.36012 | -37.28967 | 41005 ft | 486 kts | 79° |
| 2026-04-21 14:05 | 51.37285 | -37.18342 | 41004 ft | 486 kts | 79° |
| 2026-04-21 14:05 | 51.38549 | -37.07711 | 41004 ft | 486 kts | 79° |
| 2026-04-21 14:06 | 51.39802 | -36.97083 | 41003 ft | 486 kts | 79° |
| 2026-04-21 14:06 | 51.41046 | -36.86442 | 41004 ft | 486 kts | 79° |
| 2026-04-21 14:07 | 51.42281 | -36.75798 | 41007 ft | 486 kts | 79° |
| 2026-04-21 14:07 | 51.43506 | -36.65147 | 41007 ft | 486 kts | 79° |
| 2026-04-21 14:08 | 51.44720 | -36.54497 | 41004 ft | 486 kts | 79° |
| 2026-04-21 14:08 | 51.45926 | -36.43837 | 41002 ft | 486 kts | 79° |
| 2026-04-21 14:09 | 51.47121 | -36.33170 | 41001 ft | 486 kts | 80° |
| 2026-04-21 14:09 | 51.48307 | -36.22499 | 41006 ft | 486 kts | 80° |
| 2026-04-21 14:10 | 51.49483 | -36.11829 | 41002 ft | 486 kts | 80° |
| 2026-04-21 14:10 | 51.50649 | -36.01150 | 41001 ft | 486 kts | 80° |
| 2026-04-21 14:11 | 51.51806 | -35.90468 | 41003 ft | 486 kts | 80° |
| 2026-04-21 14:11 | 51.52952 | -35.79782 | 41000 ft | 485 kts | 80° |
| 2026-04-21 14:12 | 51.54089 | -35.69092 | 41006 ft | 485 kts | 80° |
| 2026-04-21 14:12 | 51.55215 | -35.58405 | 41001 ft | 485 kts | 80° |
| 2026-04-21 14:13 | 51.56331 | -35.47707 | 41004 ft | 485 kts | 80° |
| 2026-04-21 14:13 | 51.57438 | -35.37006 | 41002 ft | 485 kts | 81° |
| 2026-04-21 14:14 | 51.58536 | -35.26300 | 41002 ft | 485 kts | 81° |
| 2026-04-21 14:14 | 51.59622 | -35.15595 | 41005 ft | 485 kts | 81° |
| 2026-04-21 14:15 | 51.60700 | -35.04881 | 41002 ft | 485 kts | 81° |
| 2026-04-21 14:15 | 51.61768 | -34.94162 | 41003 ft | 485 kts | 81° |
| 2026-04-21 14:16 | 51.62826 | -34.83435 | 41002 ft | 486 kts | 81° |
| 2026-04-21 14:16 | 51.63877 | -34.72672 | 41006 ft | 488 kts | 81° |
| 2026-04-21 14:17 | 51.64923 | -34.61857 | 41010 ft | 490 kts | 81° |
| 2026-04-21 14:17 | 51.65963 | -34.51005 | 41015 ft | 490 kts | 81° |
| 2026-04-21 14:18 | 51.66991 | -34.40162 | 41008 ft | 489 kts | 81° |
| 2026-04-21 14:18 | 51.68006 | -34.29340 | 41009 ft | 488 kts | 81° |
| 2026-04-21 14:19 | 51.69010 | -34.18526 | 41006 ft | 488 kts | 81° |
| 2026-04-21 14:19 | 51.70003 | -34.07722 | 41005 ft | 487 kts | 82° |
| 2026-04-21 14:20 | 51.70985 | -33.96929 | 41003 ft | 486 kts | 82° |
| 2026-04-21 14:20 | 51.71956 | -33.86149 | 40998 ft | 486 kts | 82° |
| 2026-04-21 14:21 | 51.72918 | -33.75338 | 41000 ft | 488 kts | 82° |
| 2026-04-21 14:21 | 51.73874 | -33.64490 | 41006 ft | 489 kts | 82° |
| 2026-04-21 14:22 | 51.74822 | -33.53609 | 41007 ft | 490 kts | 82° |
| 2026-04-21 14:22 | 51.75762 | -33.42709 | 41010 ft | 490 kts | 82° |
| 2026-04-21 14:23 | 51.76689 | -33.31824 | 41011 ft | 489 kts | 82° |
| 2026-04-21 14:23 | 51.77604 | -33.20967 | 41005 ft | 487 kts | 82° |
| 2026-04-21 14:24 | 51.78507 | -33.10133 | 41000 ft | 486 kts | 82° |
| 2026-04-21 14:24 | 51.79398 | -32.99311 | 40997 ft | 487 kts | 82° |
| 2026-04-21 14:25 | 51.80133 | -32.90289 | 41001 ft | 488 kts | 82° |
| 2026-04-21 14:25 | 51.81011 | -32.79402 | 41006 ft | 489 kts | 82° |
| 2026-04-21 14:26 | 51.81880 | -32.68490 | 41006 ft | 490 kts | 83° |
| 2026-04-21 14:26 | 51.82741 | -32.57552 | 41009 ft | 491 kts | 83° |
| 2026-04-21 14:27 | 51.83591 | -32.46614 | 41009 ft | 489 kts | 83° |
| 2026-04-21 14:27 | 51.84428 | -32.35713 | 41008 ft | 488 kts | 83° |
| 2026-04-21 14:28 | 51.85253 | -32.24835 | 41005 ft | 487 kts | 83° |
| 2026-04-21 14:28 | 51.86066 | -32.13974 | 40996 ft | 486 kts | 83° |
| 2026-04-21 14:29 | 51.86871 | -32.03091 | 41002 ft | 488 kts | 83° |
| 2026-04-21 14:29 | 51.87667 | -31.92190 | 41000 ft | 488 kts | 83° |
| 2026-04-21 14:30 | 51.88454 | -31.81262 | 41004 ft | 489 kts | 83° |
| 2026-04-21 14:30 | 51.89231 | -31.70331 | 41004 ft | 489 kts | 83° |
| 2026-04-21 14:31 | 51.89999 | -31.59388 | 41007 ft | 489 kts | 83° |
| 2026-04-21 14:31 | 51.90756 | -31.48436 | 41010 ft | 490 kts | 83° |
| 2026-04-21 14:32 | 51.91504 | -31.37476 | 41010 ft | 490 kts | 84° |
| 2026-04-21 14:32 | 51.92242 | -31.26512 | 41012 ft | 489 kts | 84° |
| 2026-04-21 14:33 | 51.92954 | -31.15774 | 41012 ft | 489 kts | 84° |
| 2026-04-21 14:33 | 51.93666 | -31.04895 | 41007 ft | 489 kts | 84° |
| 2026-04-21 14:34 | 51.94372 | -30.93943 | 41006 ft | 488 kts | 84° |
| 2026-04-21 14:34 | 51.95067 | -30.82994 | 41005 ft | 488 kts | 84° |
| 2026-04-21 14:35 | 51.95752 | -30.72048 | 41006 ft | 488 kts | 84° |
| 2026-04-21 14:35 | 51.96426 | -30.61109 | 41007 ft | 488 kts | 84° |
| 2026-04-21 14:36 | 51.97090 | -30.50166 | 41004 ft | 487 kts | 84° |
| 2026-04-21 14:36 | 51.97743 | -30.39225 | 41000 ft | 487 kts | 84° |
| 2026-04-21 14:37 | 51.98386 | -30.28284 | 41000 ft | 487 kts | 84° |
| 2026-04-21 14:37 | 51.99019 | -30.17349 | 41002 ft | 487 kts | 84° |
| 2026-04-21 14:38 | 51.99642 | -30.06409 | 40999 ft | 487 kts | 85° |
| 2026-04-21 14:38 | 52.00153 | -29.95462 | 41010 ft | 486 kts | 86° |
| 2026-04-21 14:39 | 52.00669 | -29.84490 | 41012 ft | 489 kts | 86° |
| 2026-04-21 14:39 | 52.01089 | -29.73461 | 41014 ft | 490 kts | 86° |
| 2026-04-21 14:40 | 52.01539 | -29.62427 | 41010 ft | 489 kts | 86° |
| 2026-04-21 14:40 | 52.01963 | -29.51407 | 41007 ft | 489 kts | 86° |
| 2026-04-21 14:41 | 52.02379 | -29.40401 | 41005 ft | 488 kts | 86° |
| 2026-04-21 14:41 | 52.02785 | -29.29412 | 41009 ft | 488 kts | 86° |
| 2026-04-21 14:42 | 52.03179 | -29.18425 | 41007 ft | 487 kts | 86° |
| 2026-04-21 14:42 | 52.03564 | -29.07447 | 41003 ft | 487 kts | 86° |
| 2026-04-21 14:43 | 52.03938 | -28.96479 | 41003 ft | 486 kts | 87° |
| 2026-04-21 14:43 | 52.04301 | -28.85517 | 40999 ft | 486 kts | 87° |
| 2026-04-21 14:44 | 52.04655 | -28.74537 | 41000 ft | 488 kts | 87° |
| 2026-04-21 14:44 | 52.05000 | -28.63524 | 41002 ft | 488 kts | 87° |
| 2026-04-21 14:45 | 52.05334 | -28.52495 | 41007 ft | 489 kts | 87° |
| 2026-04-21 14:45 | 52.05659 | -28.41452 | 41011 ft | 489 kts | 87° |
| 2026-04-21 14:46 | 52.05973 | -28.30406 | 41008 ft | 490 kts | 87° |
| 2026-04-21 14:46 | 52.06277 | -28.19354 | 41013 ft | 489 kts | 87° |
| 2026-04-21 14:47 | 52.06569 | -28.08376 | 41009 ft | 489 kts | 88° |
| 2026-04-21 14:47 | 52.06852 | -27.97330 | 41012 ft | 489 kts | 88° |
| 2026-04-21 14:48 | 52.07126 | -27.86279 | 41007 ft | 489 kts | 88° |
| 2026-04-21 14:48 | 52.07388 | -27.75227 | 41007 ft | 489 kts | 88° |
| 2026-04-21 14:49 | 52.07641 | -27.64176 | 41011 ft | 489 kts | 88° |
| 2026-04-21 14:49 | 52.07883 | -27.53130 | 41007 ft | 489 kts | 88° |
| 2026-04-21 14:50 | 52.08078 | -27.43866 | 41007 ft | 489 kts | 88° |
| 2026-04-21 14:50 | 52.08336 | -27.31025 | 41007 ft | 489 kts | 88° |
| 2026-04-21 14:51 | 52.08547 | -27.19972 | 41010 ft | 489 kts | 88° |
| 2026-04-21 14:51 | 52.08747 | -27.08920 | 41007 ft | 489 kts | 88° |
| 2026-04-21 14:52 | 52.08937 | -26.97876 | 41011 ft | 489 kts | 88° |
| 2026-04-21 14:52 | 52.09117 | -26.86827 | 41006 ft | 489 kts | 88° |
| 2026-04-21 14:53 | 52.09287 | -26.75779 | 41010 ft | 489 kts | 89° |
| 2026-04-21 14:53 | 52.09446 | -26.64738 | 41008 ft | 489 kts | 89° |
| 2026-04-21 14:54 | 52.09595 | -26.53692 | 41005 ft | 488 kts | 89° |
| 2026-04-21 14:54 | 52.09733 | -26.42647 | 41005 ft | 488 kts | 89° |
| 2026-04-21 14:55 | 52.09862 | -26.31602 | 41009 ft | 488 kts | 89° |
| 2026-04-21 14:55 | 52.09979 | -26.20558 | 41004 ft | 488 kts | 89° |
| 2026-04-21 14:56 | 52.10087 | -26.09521 | 41009 ft | 488 kts | 89° |
| 2026-04-21 14:56 | 52.10184 | -25.98477 | 41005 ft | 488 kts | 89° |
| 2026-04-21 14:57 | 52.10271 | -25.87434 | 41007 ft | 488 kts | 89° |
| 2026-04-21 14:57 | 52.10347 | -25.76391 | 41009 ft | 488 kts | 89° |
| 2026-04-21 14:58 | 52.10413 | -25.65356 | 41009 ft | 488 kts | 89° |
| 2026-04-21 14:58 | 52.10469 | -25.54317 | 41004 ft | 488 kts | 89° |
| 2026-04-21 14:59 | 52.10515 | -25.43279 | 41008 ft | 488 kts | 90° |
| 2026-04-21 14:59 | 52.10550 | -25.32244 | 41005 ft | 488 kts | 90° |
| 2026-04-21 15:00 | 52.10575 | -25.21217 | 41007 ft | 488 kts | 90° |
| 2026-04-21 15:00 | 52.10590 | -25.10185 | 41007 ft | 488 kts | 90° |
| 2026-04-21 15:01 | 52.10594 | -24.99228 | 41007 ft | 488 kts | 90° |
| 2026-04-21 15:01 | 52.10588 | -24.88205 | 41007 ft | 488 kts | 90° |
| 2026-04-21 15:02 | 52.10572 | -24.77171 | 41002 ft | 487 kts | 90° |
| 2026-04-21 15:02 | 52.10546 | -24.66151 | 41003 ft | 487 kts | 90° |
| 2026-04-21 15:03 | 52.10509 | -24.55125 | 41006 ft | 487 kts | 90° |
| 2026-04-21 15:03 | 52.10462 | -24.44102 | 41003 ft | 487 kts | 90° |
| 2026-04-21 15:04 | 52.10405 | -24.33083 | 41006 ft | 487 kts | 90° |
| 2026-04-21 15:04 | 52.10337 | -24.22072 | 41005 ft | 487 kts | 90° |
| 2026-04-21 15:05 | 52.10260 | -24.11057 | 41002 ft | 487 kts | 91° |
| 2026-04-21 15:05 | 52.10124 | -23.94546 | 41002 ft | 487 kts | 91° |
| 2026-04-21 15:06 | 52.10020 | -23.83538 | 41001 ft | 487 kts | 91° |
| 2026-04-21 15:06 | 52.09907 | -23.72533 | 41000 ft | 487 kts | 91° |
| 2026-04-21 15:07 | 52.09783 | -23.61531 | 41000 ft | 486 kts | 91° |
| 2026-04-21 15:07 | 52.09649 | -23.50540 | 41000 ft | 486 kts | 91° |
| 2026-04-21 15:08 | 52.09505 | -23.39547 | 40997 ft | 486 kts | 91° |
| 2026-04-21 15:08 | 52.09351 | -23.28556 | 41002 ft | 486 kts | 91° |
| 2026-04-21 15:09 | 52.09186 | -23.17569 | 41002 ft | 486 kts | 91° |
| 2026-04-21 15:09 | 52.09011 | -23.06590 | 41001 ft | 486 kts | 91° |
| 2026-04-21 15:10 | 52.08858 | -22.97458 | 41001 ft | 486 kts | 91° |
| 2026-04-21 15:10 | 52.08665 | -22.86473 | 40999 ft | 487 kts | 91° |
| 2026-04-21 15:11 | 52.08461 | -22.75462 | 41006 ft | 488 kts | 92° |
| 2026-04-21 15:11 | 52.08245 | -22.64409 | 41009 ft | 490 kts | 92° |
| 2026-04-21 15:12 | 52.08019 | -22.53329 | 41010 ft | 490 kts | 92° |
| 2026-04-21 15:12 | 52.07783 | -22.42251 | 41011 ft | 490 kts | 92° |
| 2026-04-21 15:13 | 52.07536 | -22.31183 | 41012 ft | 490 kts | 92° |
| 2026-04-21 15:13 | 52.07279 | -22.20114 | 41012 ft | 490 kts | 92° |
| 2026-04-21 15:14 | 52.07011 | -22.09048 | 41008 ft | 490 kts | 92° |
| 2026-04-21 15:14 | 52.06734 | -21.97991 | 41012 ft | 490 kts | 92° |
| 2026-04-21 15:15 | 52.06445 | -21.86930 | 41012 ft | 490 kts | 92° |
| 2026-04-21 15:15 | 52.06147 | -21.75872 | 41007 ft | 490 kts | 92° |
| 2026-04-21 15:16 | 52.05838 | -21.64816 | 41011 ft | 490 kts | 92° |
| 2026-04-21 15:16 | 52.05519 | -21.53764 | 41011 ft | 490 kts | 92° |
| 2026-04-21 15:17 | 52.05190 | -21.42719 | 41011 ft | 490 kts | 93° |
| 2026-04-21 15:17 | 52.04850 | -21.31671 | 41009 ft | 490 kts | 93° |
| 2026-04-21 15:18 | 52.04500 | -21.20625 | 41008 ft | 490 kts | 93° |
| 2026-04-21 15:18 | 52.04140 | -21.09582 | 41010 ft | 490 kts | 93° |
| 2026-04-21 15:19 | 52.03769 | -20.98547 | 41008 ft | 490 kts | 93° |
| 2026-04-21 15:19 | 52.03389 | -20.87508 | 41011 ft | 489 kts | 93° |
| 2026-04-21 15:20 | 52.02997 | -20.76471 | 41006 ft | 489 kts | 93° |
| 2026-04-21 15:20 | 52.02596 | -20.65437 | 41011 ft | 489 kts | 93° |
| 2026-04-21 15:21 | 52.02184 | -20.54412 | 41011 ft | 489 kts | 94° |
| 2026-04-21 15:21 | 52.01762 | -20.43385 | 41009 ft | 489 kts | 94° |
| 2026-04-21 15:22 | 52.01330 | -20.32363 | 41007 ft | 489 kts | 94° |
| 2026-04-21 15:22 | 52.00888 | -20.21345 | 41007 ft | 489 kts | 94° |
| 2026-04-21 15:23 | 52.00435 | -20.10336 | 41006 ft | 489 kts | 94° |
| 2026-04-21 15:23 | 52.00017 | -19.99323 | 41007 ft | 488 kts | 88° |
| 2026-04-21 15:24 | 52.00241 | -19.88307 | 41005 ft | 488 kts | 88° |
| 2026-04-21 15:24 | 52.00463 | -19.77291 | 41003 ft | 488 kts | 88° |
| 2026-04-21 15:25 | 52.00665 | -19.66276 | 41002 ft | 488 kts | 88° |
| 2026-04-21 15:25 | 52.00866 | -19.55270 | 41004 ft | 488 kts | 88° |
| 2026-04-21 15:26 | 52.01049 | -19.44262 | 41008 ft | 488 kts | 88° |
| 2026-04-21 15:26 | 52.01227 | -19.33255 | 41002 ft | 488 kts | 88° |
| 2026-04-21 15:27 | 52.01391 | -19.22251 | 41004 ft | 488 kts | 89° |
| 2026-04-21 15:27 | 52.01547 | -19.11254 | 41003 ft | 487 kts | 89° |
| 2026-04-21 15:28 | 52.01692 | -19.00252 | 41003 ft | 487 kts | 89° |
| 2026-04-21 15:28 | 52.01827 | -18.89252 | 41003 ft | 487 kts | 89° |
| 2026-04-21 15:29 | 52.01951 | -18.78253 | 41006 ft | 487 kts | 89° |
| 2026-04-21 15:29 | 52.02066 | -18.67262 | 41002 ft | 487 kts | 89° |
| 2026-04-21 15:30 | 52.02170 | -18.56265 | 41006 ft | 487 kts | 89° |
| 2026-04-21 15:30 | 52.02264 | -18.45269 | 41001 ft | 487 kts | 89° |
| 2026-04-21 15:31 | 52.02347 | -18.34273 | 41005 ft | 487 kts | 89° |
| 2026-04-21 15:31 | 52.02421 | -18.23285 | 41001 ft | 487 kts | 89° |
| 2026-04-21 15:32 | 52.02484 | -18.12292 | 41002 ft | 487 kts | 89° |
| 2026-04-21 15:32 | 52.02536 | -18.01303 | 41005 ft | 487 kts | 89° |
| 2026-04-21 15:33 | 52.02579 | -17.90389 | 41000 ft | 487 kts | 90° |
| 2026-04-21 15:33 | 52.02611 | -17.79409 | 41004 ft | 486 kts | 90° |
| 2026-04-21 15:34 | 52.02633 | -17.68426 | 41004 ft | 487 kts | 90° |
| 2026-04-21 15:34 | 52.02646 | -17.57418 | 41007 ft | 488 kts | 90° |
| 2026-04-21 15:35 | 52.02647 | -17.46375 | 41008 ft | 490 kts | 90° |
| 2026-04-21 15:35 | 52.02639 | -17.35306 | 41006 ft | 491 kts | 90° |
| 2026-04-21 15:36 | 52.02620 | -17.24235 | 41007 ft | 490 kts | 90° |
| 2026-04-21 15:36 | 52.02591 | -17.13177 | 41007 ft | 489 kts | 90° |
| 2026-04-21 15:37 | 52.02551 | -17.02135 | 41005 ft | 489 kts | 90° |
| 2026-04-21 15:37 | 52.02501 | -16.91096 | 41006 ft | 489 kts | 90° |
| 2026-04-21 15:38 | 52.02441 | -16.80063 | 41005 ft | 488 kts | 90° |
| 2026-04-21 15:38 | 52.02370 | -16.69037 | 41003 ft | 488 kts | 90° |
| 2026-04-21 15:39 | 52.02290 | -16.58024 | 41001 ft | 488 kts | 91° |
| 2026-04-21 15:39 | 52.02199 | -16.47010 | 41003 ft | 488 kts | 91° |
| 2026-04-21 15:40 | 52.02098 | -16.36001 | 41004 ft | 488 kts | 91° |
| 2026-04-21 15:40 | 52.01986 | -16.24996 | 41003 ft | 487 kts | 91° |
| 2026-04-21 15:41 | 52.01865 | -16.13996 | 41002 ft | 487 kts | 91° |
| 2026-04-21 15:41 | 52.01734 | -16.03073 | 41002 ft | 487 kts | 91° |
| 2026-04-21 15:42 | 52.01592 | -15.92087 | 41001 ft | 487 kts | 91° |
| 2026-04-21 15:42 | 52.01440 | -15.81098 | 40997 ft | 487 kts | 91° |
| 2026-04-21 15:43 | 52.01278 | -15.70112 | 40997 ft | 487 kts | 91° |
| 2026-04-21 15:43 | 52.01105 | -15.59136 | 41000 ft | 487 kts | 91° |
| 2026-04-21 15:44 | 52.00923 | -15.48156 | 40996 ft | 487 kts | 91° |
| 2026-04-21 15:44 | 52.00730 | -15.37179 | 40999 ft | 486 kts | 91° |
| 2026-04-21 15:45 | 52.00527 | -15.26205 | 40996 ft | 486 kts | 92° |
| 2026-04-21 15:45 | 52.00314 | -15.15239 | 40996 ft | 486 kts | 92° |
| 2026-04-21 15:46 | 52.00091 | -15.04269 | 40995 ft | 486 kts | 92° |
| 2026-04-21 15:46 | 52.00060 | -14.93304 | 41006 ft | 487 kts | 90° |
| 2026-04-21 15:47 | 52.00045 | -14.82286 | 41008 ft | 489 kts | 90° |
| 2026-04-21 15:47 | 52.00097 | -14.71248 | 41006 ft | 490 kts | 90° |
| 2026-04-21 15:48 | 52.00098 | -14.60200 | 41009 ft | 490 kts | 90° |
| 2026-04-21 15:48 | 52.00109 | -14.49152 | 41011 ft | 489 kts | 90° |
| 2026-04-21 15:49 | 52.00100 | -14.38104 | 41004 ft | 489 kts | 90° |
| 2026-04-21 15:49 | 52.00085 | -14.27071 | 41008 ft | 489 kts | 90° |
| 2026-04-21 15:50 | 52.00058 | -14.16039 | 41003 ft | 489 kts | 90° |
| 2026-04-21 15:50 | 52.00021 | -14.05015 | 41006 ft | 488 kts | 90° |
| 2026-04-21 15:51 | 51.99824 | -13.94011 | 41006 ft | 488 kts | 92° |
| 2026-04-21 15:51 | 51.99620 | -13.83015 | 41007 ft | 488 kts | 92° |
| 2026-04-21 15:52 | 51.99317 | -13.72009 | 41009 ft | 488 kts | 92° |
| 2026-04-21 15:52 | 51.99049 | -13.60992 | 41009 ft | 489 kts | 92° |
| 2026-04-21 15:53 | 51.98753 | -13.50120 | 41013 ft | 489 kts | 92° |
| 2026-04-21 15:53 | 51.98501 | -13.40952 | 41013 ft | 490 kts | 92° |
| 2026-04-21 15:54 | 51.98190 | -13.29914 | 41008 ft | 490 kts | 92° |
| 2026-04-21 15:54 | 51.97865 | -13.18866 | 41010 ft | 491 kts | 92° |
| 2026-04-21 15:55 | 51.97531 | -13.07810 | 41013 ft | 491 kts | 93° |
| 2026-04-21 15:55 | 51.97187 | -12.96776 | 41007 ft | 489 kts | 93° |
| 2026-04-21 15:56 | 51.96834 | -12.85776 | 41002 ft | 488 kts | 93° |
| 2026-04-21 15:56 | 51.96471 | -12.74811 | 41002 ft | 487 kts | 93° |
| 2026-04-21 15:57 | 51.96099 | -12.63863 | 40995 ft | 486 kts | 93° |
| 2026-04-21 15:57 | 51.95716 | -12.52898 | 40996 ft | 488 kts | 93° |
| 2026-04-21 15:58 | 51.95322 | -12.41909 | 41003 ft | 489 kts | 93° |
| 2026-04-21 15:58 | 51.94917 | -12.30903 | 41003 ft | 490 kts | 93° |
| 2026-04-21 15:59 | 51.94500 | -12.19875 | 41008 ft | 491 kts | 94° |
| 2026-04-21 15:59 | 51.94074 | -12.08842 | 41012 ft | 490 kts | 94° |
| 2026-04-21 16:00 | 51.93638 | -11.97841 | 41004 ft | 489 kts | 94° |
| 2026-04-21 16:00 | 51.93193 | -11.86874 | 41002 ft | 487 kts | 94° |
| 2026-04-21 16:01 | 51.92739 | -11.75927 | 41002 ft | 486 kts | 94° |
| 2026-04-21 16:01 | 51.92275 | -11.64997 | 40998 ft | 487 kts | 94° |
| 2026-04-21 16:02 | 51.91800 | -11.54043 | 41001 ft | 488 kts | 94° |
| 2026-04-21 16:02 | 51.91314 | -11.43067 | 41005 ft | 489 kts | 94° |
| 2026-04-21 16:03 | 51.90816 | -11.32071 | 41003 ft | 490 kts | 94° |
| 2026-04-21 16:03 | 51.90308 | -11.21067 | 41007 ft | 490 kts | 94° |
| 2026-04-21 16:04 | 51.89790 | -11.10078 | 41011 ft | 489 kts | 94° |
| 2026-04-21 16:04 | 51.89266 | -10.99179 | 41009 ft | 488 kts | 94° |
| 2026-04-21 16:05 | 51.88729 | -10.88223 | 41002 ft | 488 kts | 95° |
| 2026-04-21 16:05 | 51.88183 | -10.77290 | 41000 ft | 487 kts | 95° |
| 2026-04-21 16:06 | 51.87627 | -10.66365 | 41002 ft | 487 kts | 95° |
| 2026-04-21 16:06 | 51.87062 | -10.55455 | 41000 ft | 486 kts | 95° |
| 2026-04-21 16:07 | 51.86487 | -10.44566 | 40994 ft | 486 kts | 95° |
| 2026-04-21 16:07 | 51.85902 | -10.33669 | 40997 ft | 488 kts | 95° |
| 2026-04-21 16:08 | 51.85001 | -10.17259 | 41000 ft | 488 kts | 95° |
| 2026-04-21 16:09 | 51.84388 | -10.06327 | 41003 ft | 488 kts | 95° |
| 2026-04-21 16:09 | 51.83764 | -9.95364 | 41001 ft | 490 kts | 95° |
| 2026-04-21 16:10 | 51.83130 | -9.84424 | 41000 ft | 488 kts | 95° |
| 2026-04-21 16:10 | 51.82488 | -9.73519 | 41002 ft | 487 kts | 95° |
| 2026-04-21 16:11 | 51.81836 | -9.62623 | 41000 ft | 489 kts | 95° |
| 2026-04-21 16:11 | 51.81170 | -9.51670 | 40999 ft | 489 kts | 96° |
| 2026-04-21 16:12 | 51.80494 | -9.40721 | 41004 ft | 491 kts | 96° |
| 2026-04-21 16:12 | 51.79808 | -9.29761 | 41003 ft | 490 kts | 96° |
| 2026-04-21 16:13 | 51.79111 | -9.18817 | 41000 ft | 489 kts | 96° |
| 2026-04-21 16:13 | 51.78407 | -9.07906 | 41004 ft | 488 kts | 96° |
| 2026-04-21 16:14 | 51.77693 | -8.97013 | 41003 ft | 487 kts | 96° |
| 2026-04-21 16:14 | 51.76971 | -8.86136 | 41001 ft | 487 kts | 96° |
| 2026-04-21 16:15 | 51.76238 | -8.75262 | 40999 ft | 487 kts | 96° |
| 2026-04-21 16:15 | 51.75496 | -8.64403 | 40996 ft | 486 kts | 96° |
| 2026-04-21 16:16 | 51.74744 | -8.53554 | 41000 ft | 487 kts | 96° |
| 2026-04-21 16:16 | 51.73980 | -8.42675 | 41003 ft | 488 kts | 96° |
| 2026-04-21 16:17 | 51.73206 | -8.31796 | 41001 ft | 488 kts | 96° |
| 2026-04-21 16:17 | 51.72422 | -8.20926 | 41003 ft | 487 kts | 97° |
| 2026-04-21 16:18 | 51.71630 | -8.10083 | 41002 ft | 487 kts | 97° |
| 2026-04-21 16:18 | 51.70834 | -7.99328 | 40997 ft | 486 kts | 97° |
| 2026-04-21 16:19 | 51.70024 | -7.88521 | 40996 ft | 486 kts | 97° |
| 2026-04-21 16:19 | 51.69202 | -7.77702 | 41001 ft | 487 kts | 97° |
| 2026-04-21 16:20 | 51.68369 | -7.66854 | 41002 ft | 488 kts | 97° |
| 2026-04-21 16:20 | 51.67524 | -7.55995 | 41003 ft | 489 kts | 97° |
| 2026-04-21 16:21 | 51.66669 | -7.45132 | 41007 ft | 489 kts | 97° |
| 2026-04-21 16:21 | 51.65802 | -7.34263 | 41010 ft | 489 kts | 97° |
| 2026-04-21 16:22 | 51.64926 | -7.23397 | 41009 ft | 489 kts | 97° |
| 2026-04-21 16:22 | 51.64040 | -7.12542 | 41009 ft | 489 kts | 97° |
| 2026-04-21 16:23 | 51.63145 | -7.01696 | 41007 ft | 489 kts | 97° |
| 2026-04-21 16:23 | 51.62239 | -6.90853 | 41008 ft | 489 kts | 98° |
| 2026-04-21 16:23 | 51.61510 | -6.85529 | 41034 ft | 487 kts | 110° |
| 2026-04-21 16:24 | 51.60284 | -6.80455 | 41002 ft | 488 kts | 112° |
| 2026-04-21 16:24 | 51.57717 | -6.70352 | 41011 ft | 488 kts | 112° |
| 2026-04-21 16:25 | 51.55159 | -6.60229 | 41009 ft | 489 kts | 112° |
| 2026-04-21 16:25 | 51.52578 | -6.50106 | 41013 ft | 490 kts | 112° |
| 2026-04-21 16:26 | 51.49992 | -6.39994 | 41011 ft | 489 kts | 112° |
| 2026-04-21 16:26 | 51.47402 | -6.29913 | 41010 ft | 488 kts | 112° |
| 2026-04-21 16:27 | 51.44810 | -6.19870 | 41006 ft | 487 kts | 112° |
| 2026-04-21 16:27 | 51.42217 | -6.09867 | 41004 ft | 486 kts | 112° |
| 2026-04-21 16:28 | 51.39618 | -5.99887 | 41001 ft | 486 kts | 112° |
| 2026-04-21 16:28 | 51.37004 | -5.89891 | 41000 ft | 487 kts | 112° |
| 2026-04-21 16:29 | 51.34820 | -5.81575 | 41005 ft | 488 kts | 113° |
| 2026-04-21 16:29 | 51.31732 | -5.69869 | 41008 ft | 489 kts | 113° |
| 2026-04-21 16:30 | 51.29080 | -5.59861 | 41011 ft | 489 kts | 113° |
| 2026-04-21 16:30 | 51.26420 | -5.49864 | 41010 ft | 489 kts | 113° |
| 2026-04-21 16:31 | 51.23752 | -5.39886 | 41010 ft | 489 kts | 113° |
| 2026-04-21 16:31 | 51.21094 | -5.29984 | 41011 ft | 489 kts | 113° |
| 2026-04-21 16:32 | 51.18411 | -5.20032 | 41009 ft | 488 kts | 113° |
| 2026-04-21 16:32 | 51.15722 | -5.10104 | 41010 ft | 488 kts | 113° |
| 2026-04-21 16:33 | 51.13028 | -5.00196 | 41011 ft | 487 kts | 113° |
| 2026-04-21 16:33 | 51.10326 | -4.90305 | 41005 ft | 487 kts | 114° |
| 2026-04-21 16:34 | 51.07620 | -4.80437 | 41006 ft | 487 kts | 114° |
| 2026-04-21 16:34 | 51.04906 | -4.70587 | 41001 ft | 486 kts | 114° |
| 2026-04-21 16:35 | 51.02188 | -4.60758 | 41001 ft | 486 kts | 114° |
| 2026-04-21 16:35 | 50.99463 | -4.50950 | 40999 ft | 485 kts | 114° |
| 2026-04-21 16:36 | 50.96725 | -4.41133 | 40998 ft | 488 kts | 114° |
| 2026-04-21 16:36 | 50.93964 | -4.31275 | 41003 ft | 490 kts | 114° |
| 2026-04-21 16:37 | 50.91193 | -4.21425 | 41006 ft | 489 kts | 114° |
| 2026-04-21 16:37 | 50.88415 | -4.11588 | 41008 ft | 489 kts | 114° |
| 2026-04-21 16:38 | 50.85632 | -4.01779 | 41009 ft | 488 kts | 114° |
| 2026-04-21 16:38 | 50.82847 | -3.91998 | 41003 ft | 487 kts | 114° |
| 2026-04-21 16:39 | 50.80594 | -3.81997 | 41002 ft | 487 kts | 108° |
| 2026-04-21 16:39 | 50.78480 | -3.71810 | 41006 ft | 487 kts | 108° |
| 2026-04-21 16:40 | 50.76331 | -3.61655 | 41010 ft | 487 kts | 108° |
| 2026-04-21 16:40 | 50.75265 | -3.56588 | 40799 ft | 483 kts | 108° |
| 2026-04-21 16:40 | 50.74546 | -3.53180 | 40229 ft | 486 kts | 108° |
| 2026-04-21 16:40 | 50.73468 | -3.48107 | 39505 ft | 488 kts | 109° |
| 2026-04-21 16:41 | 50.72388 | -3.43040 | 38859 ft | 487 kts | 109° |
| 2026-04-21 16:41 | 50.71319 | -3.38022 | 38510 ft | 479 kts | 109° |
| 2026-04-21 16:41 | 50.70260 | -3.33059 | 37960 ft | 475 kts | 109° |
| 2026-04-21 16:41 | 50.69208 | -3.28151 | 37531 ft | 470 kts | 109° |
| 2026-04-21 16:42 | 50.68163 | -3.23288 | 37052 ft | 466 kts | 109° |
| 2026-04-21 16:42 | 50.67141 | -3.18544 | 36618 ft | 461 kts | 109° |
| 2026-04-21 16:42 | 50.66114 | -3.13782 | 36154 ft | 457 kts | 109° |
| 2026-04-21 16:42 | 50.65095 | -3.09070 | 35685 ft | 452 kts | 109° |
| 2026-04-21 16:43 | 50.64085 | -3.04398 | 35189 ft | 449 kts | 108° |
| 2026-04-21 16:43 | 50.63421 | -2.99624 | 34700 ft | 445 kts | 95° |
| 2026-04-21 16:43 | 50.63429 | -2.94783 | 34199 ft | 441 kts | 82° |
| 2026-04-21 16:43 | 50.63917 | -2.90032 | 33665 ft | 438 kts | 80° |
| 2026-04-21 16:44 | 50.64440 | -2.85328 | 33196 ft | 434 kts | 79° |
| 2026-04-21 16:44 | 50.64974 | -2.80662 | 32695 ft | 431 kts | 79° |
| 2026-04-21 16:44 | 50.65496 | -2.76030 | 32199 ft | 428 kts | 80° |
| 2026-04-21 16:44 | 50.66002 | -2.71433 | 31711 ft | 424 kts | 80° |
| 2026-04-21 16:45 | 50.66505 | -2.66864 | 31217 ft | 421 kts | 80° |
| 2026-04-21 16:45 | 50.67006 | -2.62341 | 30723 ft | 418 kts | 80° |
| 2026-04-21 16:45 | 50.67502 | -2.57843 | 30200 ft | 415 kts | 80° |
| 2026-04-21 16:45 | 50.67989 | -2.53370 | 29707 ft | 412 kts | 81° |
| 2026-04-21 16:46 | 50.68099 | -2.48895 | 29206 ft | 407 kts | 94° |
| 2026-04-21 16:46 | 50.67921 | -2.44444 | 28681 ft | 405 kts | 94° |
| 2026-04-21 16:46 | 50.67722 | -2.40036 | 28197 ft | 402 kts | 94° |
| 2026-04-21 16:46 | 50.67531 | -2.35661 | 27702 ft | 398 kts | 94° |
| 2026-04-21 16:47 | 50.67352 | -2.31325 | 27205 ft | 395 kts | 94° |
| 2026-04-21 16:47 | 50.67171 | -2.27016 | 26709 ft | 392 kts | 94° |
| 2026-04-21 16:47 | 50.66985 | -2.22752 | 26209 ft | 389 kts | 94° |
| 2026-04-21 16:47 | 50.66798 | -2.18519 | 25706 ft | 386 kts | 94° |
| 2026-04-21 16:48 | 50.66614 | -2.14316 | 25207 ft | 383 kts | 94° |
| 2026-04-21 16:48 | 50.66430 | -2.10148 | 24700 ft | 380 kts | 94° |
| 2026-04-21 16:48 | 50.66245 | -2.06018 | 24197 ft | 377 kts | 94° |
| 2026-04-21 16:48 | 50.66103 | -2.01933 | 23893 ft | 369 kts | 88° |
| 2026-04-21 16:49 | 50.66198 | -1.97912 | 23658 ft | 367 kts | 89° |
| 2026-04-21 16:49 | 50.66207 | -1.93880 | 23415 ft | 369 kts | 90° |
| 2026-04-21 16:49 | 50.66229 | -1.89832 | 23163 ft | 370 kts | 89° |
| 2026-04-21 16:49 | 50.66289 | -1.85786 | 22908 ft | 369 kts | 88° |
| 2026-04-21 16:50 | 50.66349 | -1.81745 | 22673 ft | 368 kts | 89° |
| 2026-04-21 16:50 | 50.66390 | -1.77724 | 22417 ft | 366 kts | 89° |
| 2026-04-21 16:50 | 50.66426 | -1.73714 | 22160 ft | 365 kts | 89° |
| 2026-04-21 16:50 | 50.66467 | -1.69725 | 21913 ft | 363 kts | 89° |
| 2026-04-21 16:51 | 50.66510 | -1.65749 | 21667 ft | 362 kts | 89° |
| 2026-04-21 16:51 | 50.66549 | -1.61791 | 21422 ft | 361 kts | 89° |
| 2026-04-21 16:51 | 50.66584 | -1.57846 | 21176 ft | 359 kts | 89° |
| 2026-04-21 16:51 | 50.66932 | -1.53973 | 20916 ft | 357 kts | 72° |
| 2026-04-21 16:52 | 50.67920 | -1.50328 | 20108 ft | 365 kts | 64° |
| 2026-04-21 16:52 | 50.69078 | -1.46739 | 19374 ft | 368 kts | 62° |
| 2026-04-21 16:52 | 50.70235 | -1.43179 | 18943 ft | 361 kts | 63° |
| 2026-04-21 16:52 | 50.71312 | -1.39658 | 18574 ft | 352 kts | 64° |
| 2026-04-21 16:53 | 50.72352 | -1.36213 | 18224 ft | 344 kts | 64° |
| 2026-04-21 16:53 | 50.73391 | -1.32844 | 17882 ft | 339 kts | 64° |
| 2026-04-21 16:53 | 50.74427 | -1.29512 | 17549 ft | 337 kts | 64° |
| 2026-04-21 16:53 | 50.75452 | -1.26187 | 17219 ft | 336 kts | 63° |
| 2026-04-21 16:54 | 50.76795 | -1.23205 | 16909 ft | 334 kts | 42° |
| 2026-04-21 16:54 | 50.78652 | -1.21030 | 16585 ft | 333 kts | 34° |
| 2026-04-21 16:54 | 50.80595 | -1.19037 | 16271 ft | 332 kts | 32° |
| 2026-04-21 16:54 | 50.82553 | -1.17087 | 15784 ft | 334 kts | 32° |
| 2026-04-21 16:55 | 50.84485 | -1.15100 | 15373 ft | 328 kts | 33° |
| 2026-04-21 16:55 | 50.86372 | -1.13128 | 15035 ft | 324 kts | 33° |
| 2026-04-21 16:55 | 50.88257 | -1.11173 | 14729 ft | 323 kts | 33° |
| 2026-04-21 16:55 | 50.90136 | -1.09236 | 14408 ft | 322 kts | 33° |
| 2026-04-21 16:56 | 50.92006 | -1.07303 | 14103 ft | 321 kts | 33° |
| 2026-04-21 16:56 | 50.93869 | -1.05369 | 13786 ft | 320 kts | 33° |
| 2026-04-21 16:56 | 50.95725 | -1.03442 | 13491 ft | 318 kts | 33° |
| 2026-04-21 16:56 | 50.97576 | -1.01519 | 13189 ft | 317 kts | 33° |
| 2026-04-21 16:57 | 50.99421 | -0.99602 | 12884 ft | 316 kts | 33° |
| 2026-04-21 16:57 | 51.01117 | -0.97425 | 12584 ft | 314 kts | 48° |
| 2026-04-21 16:57 | 51.02561 | -0.94832 | 12287 ft | 313 kts | 48° |
| 2026-04-21 16:57 | 51.04016 | -0.92256 | 11973 ft | 312 kts | 48° |
| 2026-04-21 16:58 | 51.05460 | -0.89692 | 11683 ft | 311 kts | 48° |
| 2026-04-21 16:58 | 51.06897 | -0.87132 | 11393 ft | 309 kts | 48° |
| 2026-04-21 16:58 | 51.08323 | -0.84588 | 11101 ft | 307 kts | 48° |
| 2026-04-21 16:58 | 51.09741 | -0.82058 | 10810 ft | 306 kts | 48° |
| 2026-04-21 16:59 | 51.11153 | -0.79537 | 10519 ft | 305 kts | 48° |
| 2026-04-21 16:59 | 51.12557 | -0.77028 | 10227 ft | 300 kts | 48° |
| 2026-04-21 16:59 | 51.13920 | -0.74588 | 9932 ft | 289 kts | 48° |
| 2026-04-21 16:59 | 51.15232 | -0.72239 | 9671 ft | 280 kts | 48° |
| 2026-04-21 17:00 | 51.16518 | -0.69933 | 9414 ft | 277 kts | 48° |
| 2026-04-21 17:00 | 51.17792 | -0.67648 | 9154 ft | 275 kts | 48° |
| 2026-04-21 17:00 | 51.18646 | -0.66115 | 8984 ft | 274 kts | 48° |
| 2026-04-21 17:00 | 51.20318 | -0.63109 | 8643 ft | 273 kts | 48° |
| 2026-04-21 17:01 | 51.21575 | -0.60848 | 8391 ft | 272 kts | 48° |
| 2026-04-21 17:01 | 51.22823 | -0.58598 | 8136 ft | 271 kts | 48° |
| 2026-04-21 17:01 | 51.24070 | -0.56351 | 7879 ft | 270 kts | 48° |
| 2026-04-21 17:01 | 51.25313 | -0.54111 | 7626 ft | 269 kts | 48° |
| 2026-04-21 17:02 | 51.26548 | -0.51880 | 7376 ft | 268 kts | 48° |
| 2026-04-21 17:02 | 51.27778 | -0.49660 | 7118 ft | 258 kts | 47° |
| 2026-04-21 17:02 | 51.29159 | -0.47964 | 6863 ft | 248 kts | 21° |
| 2026-04-21 17:02 | 51.30820 | -0.47535 | 6704 ft | 240 kts | 354° |
| 2026-04-21 17:03 | 51.32389 | -0.48373 | 6676 ft | 240 kts | 326° |
| 2026-04-21 17:03 | 51.33598 | -0.50192 | 6682 ft | 240 kts | 312° |
| 2026-04-21 17:03 | 51.34722 | -0.52174 | 6691 ft | 241 kts | 311° |
| 2026-04-21 17:03 | 51.35806 | -0.54215 | 6665 ft | 241 kts | 303° |
| 2026-04-21 17:04 | 51.36404 | -0.56723 | 6263 ft | 242 kts | 284° |
| 2026-04-21 17:04 | 51.36761 | -0.59350 | 5877 ft | 241 kts | 279° |
| 2026-04-21 17:04 | 51.36903 | -0.62002 | 5544 ft | 235 kts | 272° |
| 2026-04-21 17:04 | 51.36941 | -0.64569 | 5211 ft | 227 kts | 271° |
| 2026-04-21 17:05 | 51.36963 | -0.67040 | 4899 ft | 218 kts | 271° |
| 2026-04-21 17:05 | 51.36983 | -0.69421 | 4608 ft | 210 kts | 271° |
| 2026-04-21 17:05 | 51.37002 | -0.71712 | 4325 ft | 203 kts | 271° |
| 2026-04-21 17:05 | 51.37074 | -0.73921 | 4048 ft | 196 kts | 281° |
| 2026-04-21 17:06 | 51.37829 | -0.75674 | 3739 ft | 193 kts | 319° |
| 2026-04-21 17:06 | 51.38955 | -0.76851 | 3421 ft | 192 kts | 329° |
| 2026-04-21 17:06 | 51.40104 | -0.77899 | 3114 ft | 188 kts | 330° |
| 2026-04-21 17:06 | 51.41337 | -0.78288 | 2984 ft | 187 kts | 11° |
| 2026-04-21 17:07 | 51.42121 | -0.77725 | 2943 ft | 186 kts | 29° |
| 2026-04-21 17:07 | 51.43593 | -0.76295 | 2974 ft | 189 kts | 31° |
| 2026-04-21 17:07 | 51.44735 | -0.75185 | 2926 ft | 190 kts | 31° |
| 2026-04-21 17:07 | 51.45867 | -0.74088 | 2829 ft | 189 kts | 30° |
| 2026-04-21 17:08 | 51.46995 | -0.72987 | 2673 ft | 190 kts | 31° |
| 2026-04-21 17:08 | 51.47853 | -0.71451 | 2463 ft | 188 kts | 70° |
| 2026-04-21 17:08 | 51.47763 | -0.69417 | 2302 ft | 181 kts | 109° |
| 2026-04-21 17:08 | 51.47562 | -0.67479 | 2184 ft | 175 kts | 83° |
| 2026-04-21 17:09 | 51.47639 | -0.63667 | 1939 ft | 167 kts | 90° |
| 2026-04-21 17:09 | 51.47651 | -0.61920 | 1723 ft | 151 kts | 89° |
| 2026-04-21 17:09 | 51.47656 | -0.60267 | 1521 ft | 147 kts | 89° |
| 2026-04-21 17:10 | 51.47666 | -0.58636 | 1333 ft | 146 kts | 89° |
| 2026-04-21 17:10 | 51.47677 | -0.57022 | 1143 ft | 145 kts | 89° |
| 2026-04-21 17:10 | 51.47688 | -0.55413 | 948 ft | 144 kts | 89° |
| 2026-04-21 17:10 | 51.47692 | -0.53791 | 752 ft | 143 kts | 86° |
| 2026-04-21 17:11 | 51.47715 | -0.52195 | 569 ft | 143 kts | 85° |
| 2026-04-21 17:11 | 51.47746 | -0.50623 | 386 ft | 142 kts | 88° |
| 2026-04-21 17:11 | 51.47742 | -0.49038 | 203 ft | 141 kts | 88° |
| 2026-04-21 17:11 | 51.47732 | -0.47489 | 92 ft | 130 kts | 87° |
| 2026-04-21 17:12 | 51.47753 | -0.46373 | 94 ft | 71 kts | 89° |
| 2026-04-21 17:12 | 51.47764 | -0.45668 | 90 ft | 40 kts | 90° |
| 2026-04-21 17:12 | 51.47686 | -0.45468 | 92 ft | 18 kts | 170° |
| 2026-04-21 17:12 | 51.47563 | -0.45467 | 92 ft | 16 kts | 192° |
| 2026-04-21 17:13 | 51.47507 | -0.45571 | 95 ft | 11 kts | 267° |
| 2026-04-21 17:13 | 51.47503 | -0.45702 | 94 ft | 13 kts | 267° |
| 2026-04-21 17:13 | 51.47517 | -0.45829 | 94 ft | 12 kts | 274° |
| 2026-04-21 17:13 | 51.47517 | -0.45976 | 92 ft | 14 kts | 269° |
| 2026-04-21 17:14 | 51.47516 | -0.46131 | 92 ft | 13 kts | 269° |
| 2026-04-21 17:14 | 51.47515 | -0.46288 | 92 ft | 14 kts | 269° |
| 2026-04-21 17:14 | 51.47509 | -0.46388 | 94 ft | 7 kts | 243° |
| 2026-04-21 17:14 | 51.47475 | -0.46412 | 95 ft | 3 kts | 179° |
| 2026-04-21 17:15 | 51.47446 | -0.46411 | 95 ft | 6 kts | 179° |
| 2026-04-21 17:15 | 51.47433 | -0.46411 | 95 ft | 2 kts | 179° |